<?xml version="1.0" encoding="UTF-8" standalone="no" ?>
<gpx xmlns="http://www.topografix.com/GPX/1/1" creator="CompeGPS" version="1.1" xmlns:xsi="http://www.w3.org/2001/XMLSchema-instance" xsi:schemaLocation="http://www.topografix.com/GPX/1/1 http://www.topografix.com/GPX/1/1/gpx.xsd http://www.garmin.com/xmlschemas/GpxExtensions/v3 http://www.garmin.com/xmlschemas/GpxExtensionsv3.xsd http://www.garmin.com/xmlschemas/TrackPointExtension/v1 http://www.garmin.com/xmlschemas/TrackPointExtensionv1.xsd" xmlns:gpxtpx="http://www.garmin.com/xmlschemas/TrackPointExtension/v1">
  <metadata>
    <link href="http://www.compegps.com">
      <text>CompeGPS TEAM, SL</text>
    </link>
    <time>2014-03-17T19:02:58Z</time>
    <bounds maxlat="43.357451" maxlon="1.648088" minlat="43.344320" minlon="1.620822"/>
  </metadata>
<wpt lat="43.357451" lon="1.645947">
<ele>200</ele>
<name>Parking</name>
</wpt>
<wpt lat="43.354801" lon="1.635100">
<ele>210</ele>
<name>Fin lac</name>
</wpt>
<wpt lat="43.355334" lon="1.623586">
<ele>280</ele>
<name>Chemin de Meen</name>
</wpt>
<wpt lat="43.350917" lon="1.621563">
<ele>246</ele>
<name>Fontaine St Meen</name>
</wpt>
<wpt lat="43.348040" lon="1.627117">
<ele>285</ele>
<name>Chemin de Laborie</name>
</wpt>
<wpt lat="43.344335" lon="1.644345">
<ele>210</ele>
<name>Route D25</name>
</wpt>
<trk>
    <name>Nailloux</name>
    <trkseg>
      <trkpt lat="43.357451" lon="1.645947">
        <ele>199.6</ele>
        <time>2014-03-17T14:18:53Z</time>
        <name>Parking</name>
      </trkpt>
      <trkpt lat="43.357391" lon="1.646002">
        <ele>199.9</ele>
        <time>2014-03-17T14:19:06Z</time>
      </trkpt>
      <trkpt lat="43.357314" lon="1.646022">
        <ele>200.2</ele>
        <time>2014-03-17T14:19:19Z</time>
      </trkpt>
      <trkpt lat="43.357213" lon="1.646035">
        <ele>200.5</ele>
        <time>2014-03-17T14:19:33Z</time>
      </trkpt>
      <trkpt lat="43.357110" lon="1.646058">
        <ele>201.0</ele>
        <time>2014-03-17T14:19:43Z</time>
      </trkpt>
      <trkpt lat="43.357009" lon="1.646089">
        <ele>201.6</ele>
        <time>2014-03-17T14:19:54Z</time>
      </trkpt>
      <trkpt lat="43.356964" lon="1.646049">
        <ele>204.3</ele>
        <time>2014-03-17T14:20:10Z</time>
      </trkpt>
      <trkpt lat="43.356913" lon="1.645995">
        <ele>207.7</ele>
        <time>2014-03-17T14:20:27Z</time>
      </trkpt>
      <trkpt lat="43.356938" lon="1.645873">
        <ele>208.9</ele>
        <time>2014-03-17T14:20:37Z</time>
      </trkpt>
      <trkpt lat="43.356990" lon="1.645744">
        <ele>209.4</ele>
        <time>2014-03-17T14:20:47Z</time>
      </trkpt>
      <trkpt lat="43.357026" lon="1.645627">
        <ele>209.3</ele>
        <time>2014-03-17T14:20:57Z</time>
      </trkpt>
      <trkpt lat="43.357030" lon="1.645494">
        <ele>209.0</ele>
        <time>2014-03-17T14:21:46Z</time>
      </trkpt>
      <trkpt lat="43.357071" lon="1.645381">
        <ele>209.2</ele>
        <time>2014-03-17T14:22:02Z</time>
      </trkpt>
      <trkpt lat="43.357092" lon="1.645261">
        <ele>209.1</ele>
        <time>2014-03-17T14:22:24Z</time>
      </trkpt>
      <trkpt lat="43.357134" lon="1.645137">
        <ele>209.4</ele>
        <time>2014-03-17T14:22:49Z</time>
      </trkpt>
      <trkpt lat="43.357172" lon="1.645010">
        <ele>209.4</ele>
        <time>2014-03-17T14:22:58Z</time>
      </trkpt>
      <trkpt lat="43.357215" lon="1.644896">
        <ele>209.4</ele>
        <time>2014-03-17T14:23:05Z</time>
      </trkpt>
      <trkpt lat="43.357236" lon="1.644753">
        <ele>209.2</ele>
        <time>2014-03-17T14:23:15Z</time>
      </trkpt>
      <trkpt lat="43.357284" lon="1.644624">
        <ele>209.3</ele>
        <time>2014-03-17T14:23:22Z</time>
      </trkpt>
      <trkpt lat="43.357311" lon="1.644485">
        <ele>209.3</ele>
        <time>2014-03-17T14:23:31Z</time>
      </trkpt>
      <trkpt lat="43.357343" lon="1.644342">
        <ele>209.3</ele>
        <time>2014-03-17T14:23:39Z</time>
      </trkpt>
      <trkpt lat="43.357379" lon="1.644228">
        <ele>209.4</ele>
        <time>2014-03-17T14:23:45Z</time>
      </trkpt>
      <trkpt lat="43.357376" lon="1.644131">
        <ele>207.8</ele>
        <time>2014-03-17T14:25:05Z</time>
      </trkpt>
      <trkpt lat="43.357340" lon="1.644034">
        <ele>209.5</ele>
        <time>2014-03-17T14:25:15Z</time>
      </trkpt>
      <trkpt lat="43.357265" lon="1.643953">
        <ele>210.1</ele>
        <time>2014-03-17T14:25:23Z</time>
      </trkpt>
      <trkpt lat="43.357190" lon="1.643858">
        <ele>210.4</ele>
        <time>2014-03-17T14:25:31Z</time>
      </trkpt>
      <trkpt lat="43.357094" lon="1.643759">
        <ele>210.8</ele>
        <time>2014-03-17T14:25:42Z</time>
      </trkpt>
      <trkpt lat="43.357016" lon="1.643641">
        <ele>211.4</ele>
        <time>2014-03-17T14:25:51Z</time>
      </trkpt>
      <trkpt lat="43.356952" lon="1.643547">
        <ele>211.2</ele>
        <time>2014-03-17T14:25:59Z</time>
      </trkpt>
      <trkpt lat="43.356881" lon="1.643441">
        <ele>210.5</ele>
        <time>2014-03-17T14:26:09Z</time>
      </trkpt>
      <trkpt lat="43.356812" lon="1.643325">
        <ele>210.3</ele>
        <time>2014-03-17T14:26:18Z</time>
      </trkpt>
      <trkpt lat="43.356725" lon="1.643192">
        <ele>210.3</ele>
        <time>2014-03-17T14:26:29Z</time>
      </trkpt>
      <trkpt lat="43.356656" lon="1.643077">
        <ele>209.9</ele>
        <time>2014-03-17T14:26:38Z</time>
      </trkpt>
      <trkpt lat="43.356605" lon="1.642962">
        <ele>209.9</ele>
        <time>2014-03-17T14:26:45Z</time>
      </trkpt>
      <trkpt lat="43.356499" lon="1.642836">
        <ele>209.7</ele>
        <time>2014-03-17T14:26:56Z</time>
      </trkpt>
      <trkpt lat="43.356412" lon="1.642728">
        <ele>209.4</ele>
        <time>2014-03-17T14:27:04Z</time>
      </trkpt>
      <trkpt lat="43.356335" lon="1.642635">
        <ele>209.7</ele>
        <time>2014-03-17T14:27:13Z</time>
      </trkpt>
      <trkpt lat="43.356267" lon="1.642524">
        <ele>209.7</ele>
        <time>2014-03-17T14:27:21Z</time>
      </trkpt>
      <trkpt lat="43.356210" lon="1.642403">
        <ele>209.6</ele>
        <time>2014-03-17T14:27:30Z</time>
      </trkpt>
      <trkpt lat="43.356171" lon="1.642295">
        <ele>209.6</ele>
        <time>2014-03-17T14:27:36Z</time>
      </trkpt>
      <trkpt lat="43.356123" lon="1.642178">
        <ele>209.6</ele>
        <time>2014-03-17T14:27:44Z</time>
      </trkpt>
      <trkpt lat="43.356076" lon="1.642032">
        <ele>209.7</ele>
        <time>2014-03-17T14:27:53Z</time>
      </trkpt>
      <trkpt lat="43.356068" lon="1.641892">
        <ele>209.9</ele>
        <time>2014-03-17T14:28:01Z</time>
      </trkpt>
      <trkpt lat="43.356066" lon="1.641749">
        <ele>210.1</ele>
        <time>2014-03-17T14:28:10Z</time>
      </trkpt>
      <trkpt lat="43.356090" lon="1.641618">
        <ele>210.1</ele>
        <time>2014-03-17T14:28:17Z</time>
      </trkpt>
      <trkpt lat="43.356139" lon="1.641523">
        <ele>209.9</ele>
        <time>2014-03-17T14:28:23Z</time>
      </trkpt>
      <trkpt lat="43.356154" lon="1.641369">
        <ele>210.1</ele>
        <time>2014-03-17T14:28:31Z</time>
      </trkpt>
      <trkpt lat="43.356162" lon="1.641230">
        <ele>210.0</ele>
        <time>2014-03-17T14:28:38Z</time>
      </trkpt>
      <trkpt lat="43.356176" lon="1.641096">
        <ele>209.9</ele>
        <time>2014-03-17T14:28:45Z</time>
      </trkpt>
      <trkpt lat="43.356202" lon="1.640986">
        <ele>209.9</ele>
        <time>2014-03-17T14:28:51Z</time>
      </trkpt>
      <trkpt lat="43.356203" lon="1.640892">
        <ele>209.9</ele>
        <time>2014-03-17T14:28:57Z</time>
      </trkpt>
      <trkpt lat="43.356201" lon="1.640780">
        <ele>209.8</ele>
        <time>2014-03-17T14:29:06Z</time>
      </trkpt>
      <trkpt lat="43.356230" lon="1.640646">
        <ele>209.9</ele>
        <time>2014-03-17T14:29:14Z</time>
      </trkpt>
      <trkpt lat="43.356242" lon="1.640528">
        <ele>209.9</ele>
        <time>2014-03-17T14:29:46Z</time>
      </trkpt>
      <trkpt lat="43.356320" lon="1.640435">
        <ele>209.7</ele>
        <time>2014-03-17T14:29:57Z</time>
      </trkpt>
      <trkpt lat="43.356337" lon="1.640320">
        <ele>230.5</ele>
        <time>2014-03-17T14:30:04Z</time>
      </trkpt>
      <trkpt lat="43.356381" lon="1.640170">
        <ele>231.0</ele>
        <time>2014-03-17T14:30:13Z</time>
      </trkpt>
      <trkpt lat="43.356387" lon="1.639896">
        <ele>230.2</ele>
        <time>2014-03-17T14:33:31Z</time>
      </trkpt>
      <trkpt lat="43.356307" lon="1.639680">
        <ele>228.2</ele>
        <time>2014-03-17T14:33:38Z</time>
      </trkpt>
      <trkpt lat="43.356157" lon="1.639685">
        <ele>225.1</ele>
        <time>2014-03-17T14:33:48Z</time>
      </trkpt>
      <trkpt lat="43.356024" lon="1.639757">
        <ele>222.1</ele>
        <time>2014-03-17T14:34:29Z</time>
      </trkpt>
      <trkpt lat="43.355888" lon="1.639784">
        <ele>209.2</ele>
        <time>2014-03-17T14:34:37Z</time>
      </trkpt>
      <trkpt lat="43.355812" lon="1.639698">
        <ele>209.7</ele>
        <time>2014-03-17T14:34:45Z</time>
      </trkpt>
      <trkpt lat="43.355748" lon="1.639600">
        <ele>210.1</ele>
        <time>2014-03-17T14:34:53Z</time>
      </trkpt>
      <trkpt lat="43.355684" lon="1.639491">
        <ele>210.1</ele>
        <time>2014-03-17T14:35:01Z</time>
      </trkpt>
      <trkpt lat="43.355659" lon="1.639348">
        <ele>210.0</ele>
        <time>2014-03-17T14:35:07Z</time>
      </trkpt>
      <trkpt lat="43.355616" lon="1.639223">
        <ele>209.5</ele>
        <time>2014-03-17T14:35:16Z</time>
      </trkpt>
      <trkpt lat="43.355584" lon="1.639101">
        <ele>209.3</ele>
        <time>2014-03-17T14:35:23Z</time>
      </trkpt>
      <trkpt lat="43.355566" lon="1.638959">
        <ele>209.2</ele>
        <time>2014-03-17T14:35:29Z</time>
      </trkpt>
      <trkpt lat="43.355531" lon="1.638850">
        <ele>209.1</ele>
        <time>2014-03-17T14:35:35Z</time>
      </trkpt>
      <trkpt lat="43.355487" lon="1.638741">
        <ele>209.2</ele>
        <time>2014-03-17T14:35:43Z</time>
      </trkpt>
      <trkpt lat="43.355451" lon="1.638611">
        <ele>209.1</ele>
        <time>2014-03-17T14:35:50Z</time>
      </trkpt>
      <trkpt lat="43.355456" lon="1.638476">
        <ele>209.0</ele>
        <time>2014-03-17T14:35:57Z</time>
      </trkpt>
      <trkpt lat="43.355451" lon="1.638343">
        <ele>208.9</ele>
        <time>2014-03-17T14:36:03Z</time>
      </trkpt>
      <trkpt lat="43.355423" lon="1.638206">
        <ele>209.1</ele>
        <time>2014-03-17T14:36:14Z</time>
      </trkpt>
      <trkpt lat="43.355396" lon="1.638025">
        <ele>209.1</ele>
        <time>2014-03-17T14:36:23Z</time>
      </trkpt>
      <trkpt lat="43.355365" lon="1.637878">
        <ele>209.2</ele>
        <time>2014-03-17T14:36:32Z</time>
      </trkpt>
      <trkpt lat="43.355344" lon="1.637744">
        <ele>209.5</ele>
        <time>2014-03-17T14:36:39Z</time>
      </trkpt>
      <trkpt lat="43.355346" lon="1.637612">
        <ele>209.6</ele>
        <time>2014-03-17T14:36:45Z</time>
      </trkpt>
      <trkpt lat="43.355336" lon="1.637505">
        <ele>209.5</ele>
        <time>2014-03-17T14:36:50Z</time>
      </trkpt>
      <trkpt lat="43.355303" lon="1.637388">
        <ele>209.6</ele>
        <time>2014-03-17T14:36:57Z</time>
      </trkpt>
      <trkpt lat="43.355266" lon="1.637237">
        <ele>209.6</ele>
        <time>2014-03-17T14:37:08Z</time>
      </trkpt>
      <trkpt lat="43.355256" lon="1.637105">
        <ele>209.7</ele>
        <time>2014-03-17T14:37:14Z</time>
      </trkpt>
      <trkpt lat="43.355206" lon="1.636986">
        <ele>209.8</ele>
        <time>2014-03-17T14:37:24Z</time>
      </trkpt>
      <trkpt lat="43.355137" lon="1.636869">
        <ele>209.2</ele>
        <time>2014-03-17T14:37:39Z</time>
      </trkpt>
      <trkpt lat="43.355056" lon="1.636751">
        <ele>208.7</ele>
        <time>2014-03-17T14:37:51Z</time>
      </trkpt>
      <trkpt lat="43.354979" lon="1.636603">
        <ele>208.7</ele>
        <time>2014-03-17T14:38:02Z</time>
      </trkpt>
      <trkpt lat="43.354931" lon="1.636432">
        <ele>208.8</ele>
        <time>2014-03-17T14:38:13Z</time>
      </trkpt>
      <trkpt lat="43.354849" lon="1.636333">
        <ele>208.7</ele>
        <time>2014-03-17T14:38:21Z</time>
      </trkpt>
      <trkpt lat="43.354793" lon="1.636232">
        <ele>208.7</ele>
        <time>2014-03-17T14:38:40Z</time>
      </trkpt>
      <trkpt lat="43.354772" lon="1.636112">
        <ele>209.0</ele>
        <time>2014-03-17T14:39:04Z</time>
      </trkpt>
      <trkpt lat="43.354769" lon="1.635964">
        <ele>208.8</ele>
        <time>2014-03-17T14:39:14Z</time>
      </trkpt>
      <trkpt lat="43.354788" lon="1.635823">
        <ele>208.9</ele>
        <time>2014-03-17T14:39:23Z</time>
      </trkpt>
      <trkpt lat="43.354781" lon="1.635678">
        <ele>208.9</ele>
        <time>2014-03-17T14:39:36Z</time>
      </trkpt>
      <trkpt lat="43.354770" lon="1.635537">
        <ele>209.1</ele>
        <time>2014-03-17T14:39:45Z</time>
      </trkpt>
      <trkpt lat="43.354751" lon="1.635397">
        <ele>209.3</ele>
        <time>2014-03-17T14:39:55Z</time>
      </trkpt>
      <trkpt lat="43.354753" lon="1.635253">
        <ele>209.5</ele>
        <time>2014-03-17T14:40:05Z</time>
      </trkpt>
      <trkpt lat="43.354801" lon="1.635100">
        <ele>209.4</ele>
        <time>2014-03-17T14:40:15Z</time>
        <name>Fin lac</name>
      </trkpt>
      <trkpt lat="43.354877" lon="1.635002">
        <ele>209.7</ele>
        <time>2014-03-17T14:40:27Z</time>
      </trkpt>
      <trkpt lat="43.354964" lon="1.634902">
        <ele>210.4</ele>
        <time>2014-03-17T14:40:37Z</time>
      </trkpt>
      <trkpt lat="43.355032" lon="1.634751">
        <ele>211.4</ele>
        <time>2014-03-17T14:40:48Z</time>
      </trkpt>
      <trkpt lat="43.355078" lon="1.634600">
        <ele>212.7</ele>
        <time>2014-03-17T14:41:00Z</time>
      </trkpt>
      <trkpt lat="43.355095" lon="1.634452">
        <ele>214.2</ele>
        <time>2014-03-17T14:41:09Z</time>
      </trkpt>
      <trkpt lat="43.355121" lon="1.634337">
        <ele>216.2</ele>
        <time>2014-03-17T14:41:21Z</time>
      </trkpt>
      <trkpt lat="43.355138" lon="1.634210">
        <ele>217.9</ele>
        <time>2014-03-17T14:41:33Z</time>
      </trkpt>
      <trkpt lat="43.355161" lon="1.634069">
        <ele>219.7</ele>
        <time>2014-03-17T14:41:45Z</time>
      </trkpt>
      <trkpt lat="43.355172" lon="1.633931">
        <ele>222.0</ele>
        <time>2014-03-17T14:41:57Z</time>
      </trkpt>
      <trkpt lat="43.355144" lon="1.633801">
        <ele>224.0</ele>
        <time>2014-03-17T14:42:07Z</time>
      </trkpt>
      <trkpt lat="43.355076" lon="1.633713">
        <ele>225.4</ele>
        <time>2014-03-17T14:42:17Z</time>
      </trkpt>
      <trkpt lat="43.354986" lon="1.633654">
        <ele>227.2</ele>
        <time>2014-03-17T14:42:28Z</time>
      </trkpt>
      <trkpt lat="43.354923" lon="1.633555">
        <ele>228.8</ele>
        <time>2014-03-17T14:42:39Z</time>
      </trkpt>
      <trkpt lat="43.354862" lon="1.633454">
        <ele>230.4</ele>
        <time>2014-03-17T14:42:51Z</time>
      </trkpt>
      <trkpt lat="43.354823" lon="1.633343">
        <ele>232.4</ele>
        <time>2014-03-17T14:43:03Z</time>
      </trkpt>
      <trkpt lat="43.354791" lon="1.633218">
        <ele>234.5</ele>
        <time>2014-03-17T14:43:15Z</time>
      </trkpt>
      <trkpt lat="43.354783" lon="1.633090">
        <ele>236.2</ele>
        <time>2014-03-17T14:43:28Z</time>
      </trkpt>
      <trkpt lat="43.354815" lon="1.632948">
        <ele>238.4</ele>
        <time>2014-03-17T14:43:40Z</time>
      </trkpt>
      <trkpt lat="43.354831" lon="1.632917">
        <ele>239.9</ele>
        <time>2014-03-17T14:43:53Z</time>
      </trkpt>
      <trkpt lat="43.354858" lon="1.632903">
        <ele>239.2</ele>
        <time>2014-03-17T14:44:24Z</time>
      </trkpt>
      <trkpt lat="43.354916" lon="1.632804">
        <ele>240.5</ele>
        <time>2014-03-17T14:44:46Z</time>
      </trkpt>
      <trkpt lat="43.354892" lon="1.632671">
        <ele>241.9</ele>
        <time>2014-03-17T14:44:58Z</time>
      </trkpt>
      <trkpt lat="43.354845" lon="1.632544">
        <ele>243.7</ele>
        <time>2014-03-17T14:45:11Z</time>
      </trkpt>
      <trkpt lat="43.354821" lon="1.632421">
        <ele>245.2</ele>
        <time>2014-03-17T14:45:23Z</time>
      </trkpt>
      <trkpt lat="43.354777" lon="1.632296">
        <ele>246.5</ele>
        <time>2014-03-17T14:45:33Z</time>
      </trkpt>
      <trkpt lat="43.354721" lon="1.632163">
        <ele>248.1</ele>
        <time>2014-03-17T14:45:44Z</time>
      </trkpt>
      <trkpt lat="43.354657" lon="1.632073">
        <ele>249.4</ele>
        <time>2014-03-17T14:45:53Z</time>
      </trkpt>
      <trkpt lat="43.354606" lon="1.631971">
        <ele>250.6</ele>
        <time>2014-03-17T14:46:02Z</time>
      </trkpt>
      <trkpt lat="43.354515" lon="1.631896">
        <ele>251.3</ele>
        <time>2014-03-17T14:46:12Z</time>
      </trkpt>
      <trkpt lat="43.354462" lon="1.631791">
        <ele>251.7</ele>
        <time>2014-03-17T14:46:20Z</time>
      </trkpt>
      <trkpt lat="43.354479" lon="1.631659">
        <ele>252.0</ele>
        <time>2014-03-17T14:46:29Z</time>
      </trkpt>
      <trkpt lat="43.354493" lon="1.631532">
        <ele>252.4</ele>
        <time>2014-03-17T14:46:38Z</time>
      </trkpt>
      <trkpt lat="43.354527" lon="1.631414">
        <ele>252.5</ele>
        <time>2014-03-17T14:46:47Z</time>
      </trkpt>
      <trkpt lat="43.354566" lon="1.631282">
        <ele>252.4</ele>
        <time>2014-03-17T14:46:56Z</time>
      </trkpt>
      <trkpt lat="43.354582" lon="1.631156">
        <ele>252.1</ele>
        <time>2014-03-17T14:47:06Z</time>
      </trkpt>
      <trkpt lat="43.354608" lon="1.630985">
        <ele>252.1</ele>
        <time>2014-03-17T14:47:17Z</time>
      </trkpt>
      <trkpt lat="43.354615" lon="1.630813">
        <ele>252.2</ele>
        <time>2014-03-17T14:47:28Z</time>
      </trkpt>
      <trkpt lat="43.354625" lon="1.630624">
        <ele>252.2</ele>
        <time>2014-03-17T14:47:40Z</time>
      </trkpt>
      <trkpt lat="43.354621" lon="1.630460">
        <ele>252.8</ele>
        <time>2014-03-17T14:47:48Z</time>
      </trkpt>
      <trkpt lat="43.354630" lon="1.630323">
        <ele>253.5</ele>
        <time>2014-03-17T14:47:57Z</time>
      </trkpt>
      <trkpt lat="43.354637" lon="1.630172">
        <ele>254.3</ele>
        <time>2014-03-17T14:48:06Z</time>
      </trkpt>
      <trkpt lat="43.354646" lon="1.630009">
        <ele>254.8</ele>
        <time>2014-03-17T14:48:15Z</time>
      </trkpt>
      <trkpt lat="43.354663" lon="1.629873">
        <ele>255.1</ele>
        <time>2014-03-17T14:48:23Z</time>
      </trkpt>
      <trkpt lat="43.354685" lon="1.629732">
        <ele>255.5</ele>
        <time>2014-03-17T14:48:31Z</time>
      </trkpt>
      <trkpt lat="43.354707" lon="1.629601">
        <ele>255.7</ele>
        <time>2014-03-17T14:48:39Z</time>
      </trkpt>
      <trkpt lat="43.354738" lon="1.629444">
        <ele>255.9</ele>
        <time>2014-03-17T14:48:50Z</time>
      </trkpt>
      <trkpt lat="43.354773" lon="1.629287">
        <ele>256.1</ele>
        <time>2014-03-17T14:49:00Z</time>
      </trkpt>
      <trkpt lat="43.354810" lon="1.629145">
        <ele>256.3</ele>
        <time>2014-03-17T14:49:30Z</time>
      </trkpt>
      <trkpt lat="43.354863" lon="1.628980">
        <ele>256.9</ele>
        <time>2014-03-17T14:49:44Z</time>
      </trkpt>
      <trkpt lat="43.354877" lon="1.628832">
        <ele>257.3</ele>
        <time>2014-03-17T14:49:59Z</time>
      </trkpt>
      <trkpt lat="43.354911" lon="1.628684">
        <ele>257.9</ele>
        <time>2014-03-17T14:50:13Z</time>
      </trkpt>
      <trkpt lat="43.354957" lon="1.628572">
        <ele>258.3</ele>
        <time>2014-03-17T14:50:21Z</time>
      </trkpt>
      <trkpt lat="43.354973" lon="1.628453">
        <ele>259.1</ele>
        <time>2014-03-17T14:50:30Z</time>
      </trkpt>
      <trkpt lat="43.355011" lon="1.628330">
        <ele>259.9</ele>
        <time>2014-03-17T14:50:39Z</time>
      </trkpt>
      <trkpt lat="43.355035" lon="1.628202">
        <ele>260.6</ele>
        <time>2014-03-17T14:50:48Z</time>
      </trkpt>
      <trkpt lat="43.355046" lon="1.628075">
        <ele>261.2</ele>
        <time>2014-03-17T14:50:55Z</time>
      </trkpt>
      <trkpt lat="43.355084" lon="1.627943">
        <ele>261.8</ele>
        <time>2014-03-17T14:51:04Z</time>
      </trkpt>
      <trkpt lat="43.355120" lon="1.627782">
        <ele>262.4</ele>
        <time>2014-03-17T14:51:13Z</time>
      </trkpt>
      <trkpt lat="43.355150" lon="1.627678">
        <ele>263.1</ele>
        <time>2014-03-17T14:51:20Z</time>
      </trkpt>
      <trkpt lat="43.355185" lon="1.627540">
        <ele>263.9</ele>
        <time>2014-03-17T14:51:29Z</time>
      </trkpt>
      <trkpt lat="43.355209" lon="1.627438">
        <ele>264.5</ele>
        <time>2014-03-17T14:51:36Z</time>
      </trkpt>
      <trkpt lat="43.355227" lon="1.627309">
        <ele>265.0</ele>
        <time>2014-03-17T14:51:45Z</time>
      </trkpt>
      <trkpt lat="43.355233" lon="1.627173">
        <ele>266.1</ele>
        <time>2014-03-17T14:51:54Z</time>
      </trkpt>
      <trkpt lat="43.355222" lon="1.627045">
        <ele>267.0</ele>
        <time>2014-03-17T14:52:03Z</time>
      </trkpt>
      <trkpt lat="43.355193" lon="1.626915">
        <ele>268.3</ele>
        <time>2014-03-17T14:52:14Z</time>
      </trkpt>
      <trkpt lat="43.355166" lon="1.626797">
        <ele>269.1</ele>
        <time>2014-03-17T14:52:22Z</time>
      </trkpt>
      <trkpt lat="43.355145" lon="1.626683">
        <ele>269.9</ele>
        <time>2014-03-17T14:52:30Z</time>
      </trkpt>
      <trkpt lat="43.355125" lon="1.626568">
        <ele>271.2</ele>
        <time>2014-03-17T14:52:38Z</time>
      </trkpt>
      <trkpt lat="43.355094" lon="1.626449">
        <ele>272.0</ele>
        <time>2014-03-17T14:52:45Z</time>
      </trkpt>
      <trkpt lat="43.355084" lon="1.626306">
        <ele>273.1</ele>
        <time>2014-03-17T14:52:55Z</time>
      </trkpt>
      <trkpt lat="43.355084" lon="1.626174">
        <ele>274.0</ele>
        <time>2014-03-17T14:53:03Z</time>
      </trkpt>
      <trkpt lat="43.355092" lon="1.626038">
        <ele>275.0</ele>
        <time>2014-03-17T14:53:12Z</time>
      </trkpt>
      <trkpt lat="43.355124" lon="1.625921">
        <ele>275.8</ele>
        <time>2014-03-17T14:53:20Z</time>
      </trkpt>
      <trkpt lat="43.355143" lon="1.625791">
        <ele>276.7</ele>
        <time>2014-03-17T14:53:28Z</time>
      </trkpt>
      <trkpt lat="43.355164" lon="1.625675">
        <ele>277.5</ele>
        <time>2014-03-17T14:53:36Z</time>
      </trkpt>
      <trkpt lat="43.355171" lon="1.625557">
        <ele>278.1</ele>
        <time>2014-03-17T14:53:44Z</time>
      </trkpt>
      <trkpt lat="43.355182" lon="1.625407">
        <ele>278.6</ele>
        <time>2014-03-17T14:53:55Z</time>
      </trkpt>
      <trkpt lat="43.355176" lon="1.625261">
        <ele>279.0</ele>
        <time>2014-03-17T14:54:05Z</time>
      </trkpt>
      <trkpt lat="43.355103" lon="1.625100">
        <ele>279.1</ele>
        <time>2014-03-17T14:54:15Z</time>
      </trkpt>
      <trkpt lat="43.355010" lon="1.625013">
        <ele>279.0</ele>
        <time>2014-03-17T14:54:24Z</time>
      </trkpt>
      <trkpt lat="43.354928" lon="1.624933">
        <ele>279.0</ele>
        <time>2014-03-17T14:54:31Z</time>
      </trkpt>
      <trkpt lat="43.354838" lon="1.624857">
        <ele>278.7</ele>
        <time>2014-03-17T14:54:40Z</time>
      </trkpt>
      <trkpt lat="43.354765" lon="1.624766">
        <ele>278.2</ele>
        <time>2014-03-17T14:54:49Z</time>
      </trkpt>
      <trkpt lat="43.354666" lon="1.624684">
        <ele>277.5</ele>
        <time>2014-03-17T14:55:01Z</time>
      </trkpt>
      <trkpt lat="43.354647" lon="1.624559">
        <ele>277.2</ele>
        <time>2014-03-17T14:55:09Z</time>
      </trkpt>
      <trkpt lat="43.354690" lon="1.624462">
        <ele>276.7</ele>
        <time>2014-03-17T14:55:18Z</time>
      </trkpt>
      <trkpt lat="43.354650" lon="1.624321">
        <ele>276.3</ele>
        <time>2014-03-17T14:55:30Z</time>
      </trkpt>
      <trkpt lat="43.354681" lon="1.624195">
        <ele>275.8</ele>
        <time>2014-03-17T14:55:43Z</time>
      </trkpt>
      <trkpt lat="43.354753" lon="1.624082">
        <ele>275.6</ele>
        <time>2014-03-17T14:55:56Z</time>
      </trkpt>
      <trkpt lat="43.354851" lon="1.624000">
        <ele>275.9</ele>
        <time>2014-03-17T14:56:08Z</time>
      </trkpt>
      <trkpt lat="43.354942" lon="1.623928">
        <ele>276.3</ele>
        <time>2014-03-17T14:56:18Z</time>
      </trkpt>
      <trkpt lat="43.355025" lon="1.623818">
        <ele>276.7</ele>
        <time>2014-03-17T14:56:27Z</time>
      </trkpt>
      <trkpt lat="43.355151" lon="1.623738">
        <ele>277.0</ele>
        <time>2014-03-17T14:56:37Z</time>
      </trkpt>
      <trkpt lat="43.355255" lon="1.623649">
        <ele>277.9</ele>
        <time>2014-03-17T14:56:52Z</time>
      </trkpt>
      <trkpt lat="43.355334" lon="1.623586">
        <ele>278.2</ele>
        <time>2014-03-17T14:57:04Z</time>
        <name>Chemin de Meen</name>
      </trkpt>
      <trkpt lat="43.355323" lon="1.623513">
        <ele>277.8</ele>
        <time>2014-03-17T14:57:29Z</time>
      </trkpt>
      <trkpt lat="43.355285" lon="1.623355">
        <ele>276.1</ele>
        <time>2014-03-17T14:57:46Z</time>
      </trkpt>
      <trkpt lat="43.355240" lon="1.623225">
        <ele>274.6</ele>
        <time>2014-03-17T14:58:01Z</time>
      </trkpt>
      <trkpt lat="43.355167" lon="1.623089">
        <ele>272.7</ele>
        <time>2014-03-17T14:58:14Z</time>
      </trkpt>
      <trkpt lat="43.355109" lon="1.622956">
        <ele>271.1</ele>
        <time>2014-03-17T14:58:25Z</time>
      </trkpt>
      <trkpt lat="43.355075" lon="1.622795">
        <ele>269.5</ele>
        <time>2014-03-17T14:58:36Z</time>
      </trkpt>
      <trkpt lat="43.355017" lon="1.622647">
        <ele>268.4</ele>
        <time>2014-03-17T14:58:46Z</time>
      </trkpt>
      <trkpt lat="43.354944" lon="1.622548">
        <ele>267.3</ele>
        <time>2014-03-17T14:58:54Z</time>
      </trkpt>
      <trkpt lat="43.354893" lon="1.622416">
        <ele>265.8</ele>
        <time>2014-03-17T14:59:03Z</time>
      </trkpt>
      <trkpt lat="43.354776" lon="1.622337">
        <ele>264.4</ele>
        <time>2014-03-17T14:59:13Z</time>
      </trkpt>
      <trkpt lat="43.354701" lon="1.622221">
        <ele>263.4</ele>
        <time>2014-03-17T14:59:23Z</time>
      </trkpt>
      <trkpt lat="43.354647" lon="1.622086">
        <ele>262.4</ele>
        <time>2014-03-17T14:59:33Z</time>
      </trkpt>
      <trkpt lat="43.354570" lon="1.621970">
        <ele>261.4</ele>
        <time>2014-03-17T14:59:43Z</time>
      </trkpt>
      <trkpt lat="43.354465" lon="1.621887">
        <ele>260.3</ele>
        <time>2014-03-17T14:59:52Z</time>
      </trkpt>
      <trkpt lat="43.354383" lon="1.621790">
        <ele>259.9</ele>
        <time>2014-03-17T14:59:59Z</time>
      </trkpt>
      <trkpt lat="43.354289" lon="1.621726">
        <ele>259.2</ele>
        <time>2014-03-17T15:00:09Z</time>
      </trkpt>
      <trkpt lat="43.354211" lon="1.621629">
        <ele>258.6</ele>
        <time>2014-03-17T15:00:17Z</time>
      </trkpt>
      <trkpt lat="43.354134" lon="1.621544">
        <ele>258.0</ele>
        <time>2014-03-17T15:00:26Z</time>
      </trkpt>
      <trkpt lat="43.354044" lon="1.621466">
        <ele>257.8</ele>
        <time>2014-03-17T15:00:35Z</time>
      </trkpt>
      <trkpt lat="43.353940" lon="1.621385">
        <ele>257.6</ele>
        <time>2014-03-17T15:00:44Z</time>
      </trkpt>
      <trkpt lat="43.353860" lon="1.621319">
        <ele>257.2</ele>
        <time>2014-03-17T15:00:52Z</time>
      </trkpt>
      <trkpt lat="43.353762" lon="1.621248">
        <ele>256.9</ele>
        <time>2014-03-17T15:00:59Z</time>
      </trkpt>
      <trkpt lat="43.353692" lon="1.621161">
        <ele>256.3</ele>
        <time>2014-03-17T15:01:08Z</time>
      </trkpt>
      <trkpt lat="43.353614" lon="1.621094">
        <ele>255.9</ele>
        <time>2014-03-17T15:01:16Z</time>
      </trkpt>
      <trkpt lat="43.353540" lon="1.621025">
        <ele>255.8</ele>
        <time>2014-03-17T15:01:24Z</time>
      </trkpt>
      <trkpt lat="43.353427" lon="1.620981">
        <ele>254.8</ele>
        <time>2014-03-17T15:01:33Z</time>
      </trkpt>
      <trkpt lat="43.353327" lon="1.620961">
        <ele>253.6</ele>
        <time>2014-03-17T15:01:42Z</time>
      </trkpt>
      <trkpt lat="43.353212" lon="1.620944">
        <ele>252.2</ele>
        <time>2014-03-17T15:01:53Z</time>
      </trkpt>
      <trkpt lat="43.353115" lon="1.620929">
        <ele>251.3</ele>
        <time>2014-03-17T15:02:01Z</time>
      </trkpt>
      <trkpt lat="43.353028" lon="1.620892">
        <ele>250.4</ele>
        <time>2014-03-17T15:02:09Z</time>
      </trkpt>
      <trkpt lat="43.352941" lon="1.620889">
        <ele>249.7</ele>
        <time>2014-03-17T15:02:17Z</time>
      </trkpt>
      <trkpt lat="43.352856" lon="1.620856">
        <ele>249.0</ele>
        <time>2014-03-17T15:02:25Z</time>
      </trkpt>
      <trkpt lat="43.352763" lon="1.620831">
        <ele>248.3</ele>
        <time>2014-03-17T15:02:55Z</time>
      </trkpt>
      <trkpt lat="43.352660" lon="1.620822">
        <ele>247.9</ele>
        <time>2014-03-17T15:03:08Z</time>
      </trkpt>
      <trkpt lat="43.352560" lon="1.620841">
        <ele>247.8</ele>
        <time>2014-03-17T15:03:18Z</time>
      </trkpt>
      <trkpt lat="43.352461" lon="1.620875">
        <ele>247.9</ele>
        <time>2014-03-17T15:03:28Z</time>
      </trkpt>
      <trkpt lat="43.352369" lon="1.620928">
        <ele>248.6</ele>
        <time>2014-03-17T15:03:38Z</time>
      </trkpt>
      <trkpt lat="43.352283" lon="1.620970">
        <ele>249.2</ele>
        <time>2014-03-17T15:03:47Z</time>
      </trkpt>
      <trkpt lat="43.352198" lon="1.621015">
        <ele>249.7</ele>
        <time>2014-03-17T15:03:55Z</time>
      </trkpt>
      <trkpt lat="43.352104" lon="1.621027">
        <ele>250.6</ele>
        <time>2014-03-17T15:04:04Z</time>
      </trkpt>
      <trkpt lat="43.352004" lon="1.621013">
        <ele>250.6</ele>
        <time>2014-03-17T15:04:13Z</time>
      </trkpt>
      <trkpt lat="43.351911" lon="1.621022">
        <ele>250.3</ele>
        <time>2014-03-17T15:04:23Z</time>
      </trkpt>
      <trkpt lat="43.351797" lon="1.621050">
        <ele>249.5</ele>
        <time>2014-03-17T15:04:34Z</time>
      </trkpt>
      <trkpt lat="43.351700" lon="1.621071">
        <ele>249.1</ele>
        <time>2014-03-17T15:04:43Z</time>
      </trkpt>
      <trkpt lat="43.351599" lon="1.621099">
        <ele>248.4</ele>
        <time>2014-03-17T15:04:52Z</time>
      </trkpt>
      <trkpt lat="43.351509" lon="1.621109">
        <ele>247.7</ele>
        <time>2014-03-17T15:05:00Z</time>
      </trkpt>
      <trkpt lat="43.351413" lon="1.621132">
        <ele>246.9</ele>
        <time>2014-03-17T15:05:09Z</time>
      </trkpt>
      <trkpt lat="43.351302" lon="1.621206">
        <ele>246.1</ele>
        <time>2014-03-17T15:05:20Z</time>
      </trkpt>
      <trkpt lat="43.351206" lon="1.621247">
        <ele>245.4</ele>
        <time>2014-03-17T15:05:29Z</time>
      </trkpt>
      <trkpt lat="43.351101" lon="1.621317">
        <ele>244.6</ele>
        <time>2014-03-17T15:05:38Z</time>
      </trkpt>
      <trkpt lat="43.351015" lon="1.621392">
        <ele>244.0</ele>
        <time>2014-03-17T15:05:49Z</time>
      </trkpt>
      <trkpt lat="43.350999" lon="1.621476">
        <ele>243.9</ele>
        <time>2014-03-17T15:06:08Z</time>
      </trkpt>
      <trkpt lat="43.350917" lon="1.621563">
        <ele>244.0</ele>
        <time>2014-03-17T15:06:16Z</time>
        <name>Fontaine St Meen</name>
      </trkpt>
      <trkpt lat="43.350863" lon="1.621684">
        <ele>244.4</ele>
        <time>2014-03-17T15:06:26Z</time>
      </trkpt>
      <trkpt lat="43.350840" lon="1.621829">
        <ele>245.5</ele>
        <time>2014-03-17T15:06:36Z</time>
      </trkpt>
      <trkpt lat="43.350868" lon="1.621965">
        <ele>246.5</ele>
        <time>2014-03-17T15:06:46Z</time>
      </trkpt>
      <trkpt lat="43.350893" lon="1.622097">
        <ele>247.1</ele>
        <time>2014-03-17T15:06:58Z</time>
      </trkpt>
      <trkpt lat="43.350941" lon="1.622245">
        <ele>248.1</ele>
        <time>2014-03-17T15:07:10Z</time>
      </trkpt>
      <trkpt lat="43.350983" lon="1.622364">
        <ele>249.7</ele>
        <time>2014-03-17T15:07:21Z</time>
      </trkpt>
      <trkpt lat="43.351035" lon="1.622477">
        <ele>251.3</ele>
        <time>2014-03-17T15:07:32Z</time>
      </trkpt>
      <trkpt lat="43.351087" lon="1.622592">
        <ele>252.4</ele>
        <time>2014-03-17T15:07:42Z</time>
      </trkpt>
      <trkpt lat="43.351148" lon="1.622704">
        <ele>253.9</ele>
        <time>2014-03-17T15:07:52Z</time>
      </trkpt>
      <trkpt lat="43.351228" lon="1.622805">
        <ele>255.1</ele>
        <time>2014-03-17T15:08:01Z</time>
      </trkpt>
      <trkpt lat="43.351295" lon="1.622891">
        <ele>256.0</ele>
        <time>2014-03-17T15:08:09Z</time>
      </trkpt>
      <trkpt lat="43.351370" lon="1.622981">
        <ele>257.1</ele>
        <time>2014-03-17T15:08:18Z</time>
      </trkpt>
      <trkpt lat="43.351427" lon="1.623071">
        <ele>257.9</ele>
        <time>2014-03-17T15:08:27Z</time>
      </trkpt>
      <trkpt lat="43.351456" lon="1.623184">
        <ele>259.0</ele>
        <time>2014-03-17T15:08:37Z</time>
      </trkpt>
      <trkpt lat="43.351501" lon="1.623337">
        <ele>259.9</ele>
        <time>2014-03-17T15:08:47Z</time>
      </trkpt>
      <trkpt lat="43.351533" lon="1.623468">
        <ele>260.6</ele>
        <time>2014-03-17T15:08:55Z</time>
      </trkpt>
      <trkpt lat="43.351553" lon="1.623587">
        <ele>261.4</ele>
        <time>2014-03-17T15:09:03Z</time>
      </trkpt>
      <trkpt lat="43.351579" lon="1.623711">
        <ele>262.5</ele>
        <time>2014-03-17T15:09:12Z</time>
      </trkpt>
      <trkpt lat="43.351608" lon="1.623846">
        <ele>263.5</ele>
        <time>2014-03-17T15:09:21Z</time>
      </trkpt>
      <trkpt lat="43.351609" lon="1.623973">
        <ele>264.0</ele>
        <time>2014-03-17T15:09:30Z</time>
      </trkpt>
      <trkpt lat="43.351600" lon="1.624089">
        <ele>264.6</ele>
        <time>2014-03-17T15:09:38Z</time>
      </trkpt>
      <trkpt lat="43.351574" lon="1.624218">
        <ele>265.1</ele>
        <time>2014-03-17T15:09:48Z</time>
      </trkpt>
      <trkpt lat="43.351537" lon="1.624336">
        <ele>265.8</ele>
        <time>2014-03-17T15:09:57Z</time>
      </trkpt>
      <trkpt lat="43.351484" lon="1.624460">
        <ele>266.2</ele>
        <time>2014-03-17T15:10:05Z</time>
      </trkpt>
      <trkpt lat="43.351435" lon="1.624562">
        <ele>266.6</ele>
        <time>2014-03-17T15:10:13Z</time>
      </trkpt>
      <trkpt lat="43.351356" lon="1.624664">
        <ele>267.2</ele>
        <time>2014-03-17T15:10:23Z</time>
      </trkpt>
      <trkpt lat="43.351269" lon="1.624728">
        <ele>267.7</ele>
        <time>2014-03-17T15:10:31Z</time>
      </trkpt>
      <trkpt lat="43.351197" lon="1.624801">
        <ele>268.5</ele>
        <time>2014-03-17T15:10:39Z</time>
      </trkpt>
      <trkpt lat="43.351129" lon="1.624907">
        <ele>269.1</ele>
        <time>2014-03-17T15:10:48Z</time>
      </trkpt>
      <trkpt lat="43.351051" lon="1.625003">
        <ele>269.7</ele>
        <time>2014-03-17T15:10:56Z</time>
      </trkpt>
      <trkpt lat="43.350993" lon="1.625081">
        <ele>270.2</ele>
        <time>2014-03-17T15:11:03Z</time>
      </trkpt>
      <trkpt lat="43.350915" lon="1.625141">
        <ele>270.5</ele>
        <time>2014-03-17T15:11:11Z</time>
      </trkpt>
      <trkpt lat="43.350820" lon="1.625181">
        <ele>270.6</ele>
        <time>2014-03-17T15:11:19Z</time>
      </trkpt>
      <trkpt lat="43.350723" lon="1.625223">
        <ele>271.0</ele>
        <time>2014-03-17T15:11:28Z</time>
      </trkpt>
      <trkpt lat="43.350627" lon="1.625259">
        <ele>271.0</ele>
        <time>2014-03-17T15:11:36Z</time>
      </trkpt>
      <trkpt lat="43.350525" lon="1.625292">
        <ele>271.4</ele>
        <time>2014-03-17T15:11:45Z</time>
      </trkpt>
      <trkpt lat="43.350428" lon="1.625326">
        <ele>271.6</ele>
        <time>2014-03-17T15:11:54Z</time>
      </trkpt>
      <trkpt lat="43.350322" lon="1.625366">
        <ele>271.6</ele>
        <time>2014-03-17T15:12:02Z</time>
      </trkpt>
      <trkpt lat="43.350217" lon="1.625401">
        <ele>271.4</ele>
        <time>2014-03-17T15:12:11Z</time>
      </trkpt>
      <trkpt lat="43.350126" lon="1.625446">
        <ele>271.5</ele>
        <time>2014-03-17T15:12:19Z</time>
      </trkpt>
      <trkpt lat="43.350032" lon="1.625474">
        <ele>271.6</ele>
        <time>2014-03-17T15:12:27Z</time>
      </trkpt>
      <trkpt lat="43.349939" lon="1.625550">
        <ele>271.7</ele>
        <time>2014-03-17T15:12:36Z</time>
      </trkpt>
      <trkpt lat="43.349859" lon="1.625589">
        <ele>272.0</ele>
        <time>2014-03-17T15:12:42Z</time>
      </trkpt>
      <trkpt lat="43.349771" lon="1.625629">
        <ele>272.1</ele>
        <time>2014-03-17T15:12:49Z</time>
      </trkpt>
      <trkpt lat="43.349686" lon="1.625654">
        <ele>272.2</ele>
        <time>2014-03-17T15:12:56Z</time>
      </trkpt>
      <trkpt lat="43.349589" lon="1.625688">
        <ele>272.6</ele>
        <time>2014-03-17T15:13:05Z</time>
      </trkpt>
      <trkpt lat="43.349479" lon="1.625722">
        <ele>273.1</ele>
        <time>2014-03-17T15:13:14Z</time>
      </trkpt>
      <trkpt lat="43.349390" lon="1.625758">
        <ele>273.7</ele>
        <time>2014-03-17T15:13:22Z</time>
      </trkpt>
      <trkpt lat="43.349294" lon="1.625794">
        <ele>274.1</ele>
        <time>2014-03-17T15:13:28Z</time>
      </trkpt>
      <trkpt lat="43.349212" lon="1.625836">
        <ele>274.5</ele>
        <time>2014-03-17T15:13:36Z</time>
      </trkpt>
      <trkpt lat="43.349125" lon="1.625886">
        <ele>275.1</ele>
        <time>2014-03-17T15:13:43Z</time>
      </trkpt>
      <trkpt lat="43.349037" lon="1.625904">
        <ele>275.8</ele>
        <time>2014-03-17T15:13:50Z</time>
      </trkpt>
      <trkpt lat="43.348954" lon="1.625943">
        <ele>276.3</ele>
        <time>2014-03-17T15:13:57Z</time>
      </trkpt>
      <trkpt lat="43.348863" lon="1.625987">
        <ele>276.9</ele>
        <time>2014-03-17T15:14:05Z</time>
      </trkpt>
      <trkpt lat="43.348777" lon="1.626046">
        <ele>277.4</ele>
        <time>2014-03-17T15:14:13Z</time>
      </trkpt>
      <trkpt lat="43.348693" lon="1.626119">
        <ele>277.9</ele>
        <time>2014-03-17T15:14:20Z</time>
      </trkpt>
      <trkpt lat="43.348625" lon="1.626183">
        <ele>278.6</ele>
        <time>2014-03-17T15:14:27Z</time>
      </trkpt>
      <trkpt lat="43.348556" lon="1.626261">
        <ele>279.2</ele>
        <time>2014-03-17T15:14:33Z</time>
      </trkpt>
      <trkpt lat="43.348496" lon="1.626355">
        <ele>279.8</ele>
        <time>2014-03-17T15:14:41Z</time>
      </trkpt>
      <trkpt lat="43.348428" lon="1.626448">
        <ele>280.4</ele>
        <time>2014-03-17T15:14:48Z</time>
      </trkpt>
      <trkpt lat="43.348368" lon="1.626549">
        <ele>281.0</ele>
        <time>2014-03-17T15:14:56Z</time>
      </trkpt>
      <trkpt lat="43.348303" lon="1.626642">
        <ele>281.5</ele>
        <time>2014-03-17T15:15:04Z</time>
      </trkpt>
      <trkpt lat="43.348238" lon="1.626747">
        <ele>282.1</ele>
        <time>2014-03-17T15:15:12Z</time>
      </trkpt>
      <trkpt lat="43.348170" lon="1.626859">
        <ele>282.8</ele>
        <time>2014-03-17T15:15:21Z</time>
      </trkpt>
      <trkpt lat="43.348092" lon="1.626978">
        <ele>283.5</ele>
        <time>2014-03-17T15:15:31Z</time>
      </trkpt>
      <trkpt lat="43.348040" lon="1.627117">
        <ele>283.7</ele>
        <time>2014-03-17T15:15:41Z</time>
        <name>Chemin de Laborie</name>
      </trkpt>
      <trkpt lat="43.348038" lon="1.627269">
        <ele>284.5</ele>
        <time>2014-03-17T15:16:19Z</time>
      </trkpt>
      <trkpt lat="43.348063" lon="1.627403">
        <ele>284.7</ele>
        <time>2014-03-17T15:16:30Z</time>
      </trkpt>
      <trkpt lat="43.348064" lon="1.627519">
        <ele>285.4</ele>
        <time>2014-03-17T15:16:36Z</time>
      </trkpt>
      <trkpt lat="43.348041" lon="1.627636">
        <ele>286.1</ele>
        <time>2014-03-17T15:16:43Z</time>
      </trkpt>
      <trkpt lat="43.348007" lon="1.627764">
        <ele>286.6</ele>
        <time>2014-03-17T15:16:51Z</time>
      </trkpt>
      <trkpt lat="43.347971" lon="1.627897">
        <ele>287.2</ele>
        <time>2014-03-17T15:17:00Z</time>
      </trkpt>
      <trkpt lat="43.347940" lon="1.628048">
        <ele>287.9</ele>
        <time>2014-03-17T15:17:09Z</time>
      </trkpt>
      <trkpt lat="43.347921" lon="1.628156">
        <ele>288.3</ele>
        <time>2014-03-17T15:17:17Z</time>
      </trkpt>
      <trkpt lat="43.347887" lon="1.628278">
        <ele>288.7</ele>
        <time>2014-03-17T15:17:26Z</time>
      </trkpt>
      <trkpt lat="43.347862" lon="1.628412">
        <ele>289.2</ele>
        <time>2014-03-17T15:17:35Z</time>
      </trkpt>
      <trkpt lat="43.347833" lon="1.628543">
        <ele>289.4</ele>
        <time>2014-03-17T15:17:44Z</time>
      </trkpt>
      <trkpt lat="43.347798" lon="1.628673">
        <ele>289.5</ele>
        <time>2014-03-17T15:17:52Z</time>
      </trkpt>
      <trkpt lat="43.347758" lon="1.628792">
        <ele>289.5</ele>
        <time>2014-03-17T15:18:00Z</time>
      </trkpt>
      <trkpt lat="43.347720" lon="1.628910">
        <ele>289.5</ele>
        <time>2014-03-17T15:18:09Z</time>
      </trkpt>
      <trkpt lat="43.347663" lon="1.629030">
        <ele>289.9</ele>
        <time>2014-03-17T15:18:19Z</time>
      </trkpt>
      <trkpt lat="43.347610" lon="1.629151">
        <ele>290.1</ele>
        <time>2014-03-17T15:18:27Z</time>
      </trkpt>
      <trkpt lat="43.347579" lon="1.629278">
        <ele>290.3</ele>
        <time>2014-03-17T15:18:35Z</time>
      </trkpt>
      <trkpt lat="43.347545" lon="1.629393">
        <ele>290.5</ele>
        <time>2014-03-17T15:18:43Z</time>
      </trkpt>
      <trkpt lat="43.347515" lon="1.629539">
        <ele>290.8</ele>
        <time>2014-03-17T15:18:52Z</time>
      </trkpt>
      <trkpt lat="43.347494" lon="1.629668">
        <ele>291.0</ele>
        <time>2014-03-17T15:19:00Z</time>
      </trkpt>
      <trkpt lat="43.347477" lon="1.629794">
        <ele>291.1</ele>
        <time>2014-03-17T15:19:08Z</time>
      </trkpt>
      <trkpt lat="43.347450" lon="1.629930">
        <ele>291.2</ele>
        <time>2014-03-17T15:19:15Z</time>
      </trkpt>
      <trkpt lat="43.347435" lon="1.630065">
        <ele>291.3</ele>
        <time>2014-03-17T15:19:24Z</time>
      </trkpt>
      <trkpt lat="43.347416" lon="1.630205">
        <ele>291.5</ele>
        <time>2014-03-17T15:19:33Z</time>
      </trkpt>
      <trkpt lat="43.347392" lon="1.630316">
        <ele>291.5</ele>
        <time>2014-03-17T15:19:40Z</time>
      </trkpt>
      <trkpt lat="43.347389" lon="1.630435">
        <ele>291.7</ele>
        <time>2014-03-17T15:19:49Z</time>
      </trkpt>
      <trkpt lat="43.347381" lon="1.630537">
        <ele>291.8</ele>
        <time>2014-03-17T15:20:06Z</time>
      </trkpt>
      <trkpt lat="43.347372" lon="1.630682">
        <ele>291.5</ele>
        <time>2014-03-17T15:20:17Z</time>
      </trkpt>
      <trkpt lat="43.347346" lon="1.630812">
        <ele>291.0</ele>
        <time>2014-03-17T15:20:27Z</time>
      </trkpt>
      <trkpt lat="43.347312" lon="1.630957">
        <ele>290.3</ele>
        <time>2014-03-17T15:20:39Z</time>
      </trkpt>
      <trkpt lat="43.347292" lon="1.631090">
        <ele>290.0</ele>
        <time>2014-03-17T15:20:50Z</time>
      </trkpt>
      <trkpt lat="43.347279" lon="1.631226">
        <ele>289.6</ele>
        <time>2014-03-17T15:21:18Z</time>
      </trkpt>
      <trkpt lat="43.347269" lon="1.631361">
        <ele>288.9</ele>
        <time>2014-03-17T15:21:29Z</time>
      </trkpt>
      <trkpt lat="43.347256" lon="1.631499">
        <ele>288.4</ele>
        <time>2014-03-17T15:21:41Z</time>
      </trkpt>
      <trkpt lat="43.347236" lon="1.631631">
        <ele>287.8</ele>
        <time>2014-03-17T15:21:53Z</time>
      </trkpt>
      <trkpt lat="43.347249" lon="1.631727">
        <ele>287.4</ele>
        <time>2014-03-17T15:22:12Z</time>
      </trkpt>
      <trkpt lat="43.347254" lon="1.631850">
        <ele>286.7</ele>
        <time>2014-03-17T15:22:22Z</time>
      </trkpt>
      <trkpt lat="43.347268" lon="1.631969">
        <ele>285.7</ele>
        <time>2014-03-17T15:22:33Z</time>
      </trkpt>
      <trkpt lat="43.347297" lon="1.632112">
        <ele>284.7</ele>
        <time>2014-03-17T15:22:44Z</time>
      </trkpt>
      <trkpt lat="43.347329" lon="1.632239">
        <ele>283.1</ele>
        <time>2014-03-17T15:22:55Z</time>
      </trkpt>
      <trkpt lat="43.347355" lon="1.632353">
        <ele>281.4</ele>
        <time>2014-03-17T15:23:06Z</time>
      </trkpt>
      <trkpt lat="43.347400" lon="1.632477">
        <ele>279.8</ele>
        <time>2014-03-17T15:23:16Z</time>
      </trkpt>
      <trkpt lat="43.347430" lon="1.632590">
        <ele>278.3</ele>
        <time>2014-03-17T15:23:25Z</time>
      </trkpt>
      <trkpt lat="43.347462" lon="1.632683">
        <ele>276.9</ele>
        <time>2014-03-17T15:23:34Z</time>
      </trkpt>
      <trkpt lat="43.347530" lon="1.632787">
        <ele>275.5</ele>
        <time>2014-03-17T15:23:44Z</time>
      </trkpt>
      <trkpt lat="43.347607" lon="1.632880">
        <ele>274.6</ele>
        <time>2014-03-17T15:23:52Z</time>
      </trkpt>
      <trkpt lat="43.347689" lon="1.632945">
        <ele>273.7</ele>
        <time>2014-03-17T15:24:00Z</time>
      </trkpt>
      <trkpt lat="43.347763" lon="1.633009">
        <ele>273.1</ele>
        <time>2014-03-17T15:24:08Z</time>
      </trkpt>
      <trkpt lat="43.347847" lon="1.633044">
        <ele>272.7</ele>
        <time>2014-03-17T15:24:14Z</time>
      </trkpt>
      <trkpt lat="43.347930" lon="1.633080">
        <ele>272.3</ele>
        <time>2014-03-17T15:24:23Z</time>
      </trkpt>
      <trkpt lat="43.348012" lon="1.633142">
        <ele>271.3</ele>
        <time>2014-03-17T15:24:33Z</time>
      </trkpt>
      <trkpt lat="43.348112" lon="1.633208">
        <ele>270.6</ele>
        <time>2014-03-17T15:24:43Z</time>
      </trkpt>
      <trkpt lat="43.348206" lon="1.633278">
        <ele>270.1</ele>
        <time>2014-03-17T15:24:52Z</time>
      </trkpt>
      <trkpt lat="43.348293" lon="1.633331">
        <ele>269.6</ele>
        <time>2014-03-17T15:25:00Z</time>
      </trkpt>
      <trkpt lat="43.348386" lon="1.633378">
        <ele>269.0</ele>
        <time>2014-03-17T15:25:09Z</time>
      </trkpt>
      <trkpt lat="43.348388" lon="1.633509">
        <ele>268.7</ele>
        <time>2014-03-17T15:25:19Z</time>
      </trkpt>
      <trkpt lat="43.348336" lon="1.633618">
        <ele>268.9</ele>
        <time>2014-03-17T15:25:29Z</time>
      </trkpt>
      <trkpt lat="43.348293" lon="1.633727">
        <ele>269.9</ele>
        <time>2014-03-17T15:25:38Z</time>
      </trkpt>
      <trkpt lat="43.348252" lon="1.633831">
        <ele>271.2</ele>
        <time>2014-03-17T15:25:49Z</time>
      </trkpt>
      <trkpt lat="43.348211" lon="1.633946">
        <ele>272.3</ele>
        <time>2014-03-17T15:25:59Z</time>
      </trkpt>
      <trkpt lat="43.348165" lon="1.634059">
        <ele>273.8</ele>
        <time>2014-03-17T15:26:10Z</time>
      </trkpt>
      <trkpt lat="43.348133" lon="1.634181">
        <ele>275.2</ele>
        <time>2014-03-17T15:26:20Z</time>
      </trkpt>
      <trkpt lat="43.348104" lon="1.634310">
        <ele>276.1</ele>
        <time>2014-03-17T15:26:29Z</time>
      </trkpt>
      <trkpt lat="43.348080" lon="1.634442">
        <ele>276.8</ele>
        <time>2014-03-17T15:26:39Z</time>
      </trkpt>
      <trkpt lat="43.348053" lon="1.634560">
        <ele>276.9</ele>
        <time>2014-03-17T15:26:49Z</time>
      </trkpt>
      <trkpt lat="43.348023" lon="1.634669">
        <ele>276.4</ele>
        <time>2014-03-17T15:26:59Z</time>
      </trkpt>
      <trkpt lat="43.347992" lon="1.634780">
        <ele>275.7</ele>
        <time>2014-03-17T15:27:13Z</time>
      </trkpt>
      <trkpt lat="43.347960" lon="1.634901">
        <ele>275.3</ele>
        <time>2014-03-17T15:27:22Z</time>
      </trkpt>
      <trkpt lat="43.347922" lon="1.635011">
        <ele>274.9</ele>
        <time>2014-03-17T15:27:30Z</time>
      </trkpt>
      <trkpt lat="43.347872" lon="1.635124">
        <ele>274.4</ele>
        <time>2014-03-17T15:27:39Z</time>
      </trkpt>
      <trkpt lat="43.347845" lon="1.635236">
        <ele>274.0</ele>
        <time>2014-03-17T15:27:47Z</time>
      </trkpt>
      <trkpt lat="43.347807" lon="1.635365">
        <ele>273.5</ele>
        <time>2014-03-17T15:27:57Z</time>
      </trkpt>
      <trkpt lat="43.347768" lon="1.635482">
        <ele>272.9</ele>
        <time>2014-03-17T15:28:05Z</time>
      </trkpt>
      <trkpt lat="43.347732" lon="1.635596">
        <ele>272.2</ele>
        <time>2014-03-17T15:28:13Z</time>
      </trkpt>
      <trkpt lat="43.347698" lon="1.635705">
        <ele>271.6</ele>
        <time>2014-03-17T15:28:21Z</time>
      </trkpt>
      <trkpt lat="43.347666" lon="1.635821">
        <ele>271.3</ele>
        <time>2014-03-17T15:28:29Z</time>
      </trkpt>
      <trkpt lat="43.347627" lon="1.635937">
        <ele>270.8</ele>
        <time>2014-03-17T15:28:37Z</time>
      </trkpt>
      <trkpt lat="43.347587" lon="1.636041">
        <ele>270.0</ele>
        <time>2014-03-17T15:29:20Z</time>
      </trkpt>
      <trkpt lat="43.347543" lon="1.636167">
        <ele>269.8</ele>
        <time>2014-03-17T15:29:56Z</time>
      </trkpt>
      <trkpt lat="43.347506" lon="1.636280">
        <ele>269.5</ele>
        <time>2014-03-17T15:30:05Z</time>
      </trkpt>
      <trkpt lat="43.347463" lon="1.636406">
        <ele>269.0</ele>
        <time>2014-03-17T15:30:14Z</time>
      </trkpt>
      <trkpt lat="43.347441" lon="1.636519">
        <ele>268.8</ele>
        <time>2014-03-17T15:30:34Z</time>
      </trkpt>
      <trkpt lat="43.347392" lon="1.636636">
        <ele>268.2</ele>
        <time>2014-03-17T15:30:43Z</time>
      </trkpt>
      <trkpt lat="43.347356" lon="1.636751">
        <ele>268.0</ele>
        <time>2014-03-17T15:30:51Z</time>
      </trkpt>
      <trkpt lat="43.347310" lon="1.636873">
        <ele>267.6</ele>
        <time>2014-03-17T15:30:59Z</time>
      </trkpt>
      <trkpt lat="43.347271" lon="1.636992">
        <ele>267.4</ele>
        <time>2014-03-17T15:31:07Z</time>
      </trkpt>
      <trkpt lat="43.347241" lon="1.637083">
        <ele>267.9</ele>
        <time>2014-03-17T15:31:53Z</time>
      </trkpt>
      <trkpt lat="43.347204" lon="1.637223">
        <ele>267.7</ele>
        <time>2014-03-17T15:32:02Z</time>
      </trkpt>
      <trkpt lat="43.347168" lon="1.637348">
        <ele>267.6</ele>
        <time>2014-03-17T15:32:10Z</time>
      </trkpt>
      <trkpt lat="43.347129" lon="1.637468">
        <ele>267.2</ele>
        <time>2014-03-17T15:32:17Z</time>
      </trkpt>
      <trkpt lat="43.347093" lon="1.637599">
        <ele>267.2</ele>
        <time>2014-03-17T15:32:26Z</time>
      </trkpt>
      <trkpt lat="43.347044" lon="1.637712">
        <ele>267.1</ele>
        <time>2014-03-17T15:32:32Z</time>
      </trkpt>
      <trkpt lat="43.347008" lon="1.637828">
        <ele>267.1</ele>
        <time>2014-03-17T15:32:39Z</time>
      </trkpt>
      <trkpt lat="43.346966" lon="1.637935">
        <ele>267.1</ele>
        <time>2014-03-17T15:32:46Z</time>
      </trkpt>
      <trkpt lat="43.346925" lon="1.638070">
        <ele>267.3</ele>
        <time>2014-03-17T15:32:55Z</time>
      </trkpt>
      <trkpt lat="43.346881" lon="1.638178">
        <ele>267.1</ele>
        <time>2014-03-17T15:33:01Z</time>
      </trkpt>
      <trkpt lat="43.346861" lon="1.638302">
        <ele>266.8</ele>
        <time>2014-03-17T15:33:10Z</time>
      </trkpt>
      <trkpt lat="43.346832" lon="1.638425">
        <ele>266.5</ele>
        <time>2014-03-17T15:33:18Z</time>
      </trkpt>
      <trkpt lat="43.346796" lon="1.638544">
        <ele>266.4</ele>
        <time>2014-03-17T15:33:25Z</time>
      </trkpt>
      <trkpt lat="43.346762" lon="1.638666">
        <ele>266.2</ele>
        <time>2014-03-17T15:33:34Z</time>
      </trkpt>
      <trkpt lat="43.346734" lon="1.638784">
        <ele>265.9</ele>
        <time>2014-03-17T15:33:41Z</time>
      </trkpt>
      <trkpt lat="43.346690" lon="1.638913">
        <ele>265.4</ele>
        <time>2014-03-17T15:33:49Z</time>
      </trkpt>
      <trkpt lat="43.346651" lon="1.639035">
        <ele>265.0</ele>
        <time>2014-03-17T15:33:57Z</time>
      </trkpt>
      <trkpt lat="43.346614" lon="1.639151">
        <ele>264.2</ele>
        <time>2014-03-17T15:34:06Z</time>
      </trkpt>
      <trkpt lat="43.346581" lon="1.639256">
        <ele>263.8</ele>
        <time>2014-03-17T15:34:15Z</time>
      </trkpt>
      <trkpt lat="43.346548" lon="1.639397">
        <ele>262.6</ele>
        <time>2014-03-17T15:35:15Z</time>
      </trkpt>
      <trkpt lat="43.346510" lon="1.639508">
        <ele>262.1</ele>
        <time>2014-03-17T15:35:26Z</time>
      </trkpt>
      <trkpt lat="43.346453" lon="1.639610">
        <ele>261.1</ele>
        <time>2014-03-17T15:35:38Z</time>
      </trkpt>
      <trkpt lat="43.346450" lon="1.639748">
        <ele>259.9</ele>
        <time>2014-03-17T15:35:51Z</time>
      </trkpt>
      <trkpt lat="43.346408" lon="1.639912">
        <ele>241.3</ele>
        <time>2014-03-17T15:37:19Z</time>
      </trkpt>
      <trkpt lat="43.346391" lon="1.640004">
        <ele>240.6</ele>
        <time>2014-03-17T15:37:31Z</time>
      </trkpt>
      <trkpt lat="43.346384" lon="1.640089">
        <ele>257.3</ele>
        <time>2014-03-17T15:37:43Z</time>
      </trkpt>
      <trkpt lat="43.346348" lon="1.640191">
        <ele>256.5</ele>
        <time>2014-03-17T15:37:54Z</time>
      </trkpt>
      <trkpt lat="43.346300" lon="1.640298">
        <ele>255.0</ele>
        <time>2014-03-17T15:38:06Z</time>
      </trkpt>
      <trkpt lat="43.346228" lon="1.640355">
        <ele>253.4</ele>
        <time>2014-03-17T15:38:17Z</time>
      </trkpt>
      <trkpt lat="43.346168" lon="1.640485">
        <ele>251.9</ele>
        <time>2014-03-17T15:38:29Z</time>
      </trkpt>
      <trkpt lat="43.346125" lon="1.640601">
        <ele>250.6</ele>
        <time>2014-03-17T15:38:39Z</time>
      </trkpt>
      <trkpt lat="43.346096" lon="1.640716">
        <ele>249.3</ele>
        <time>2014-03-17T15:38:49Z</time>
      </trkpt>
      <trkpt lat="43.346062" lon="1.640830">
        <ele>247.9</ele>
        <time>2014-03-17T15:38:59Z</time>
      </trkpt>
      <trkpt lat="43.346032" lon="1.640952">
        <ele>246.8</ele>
        <time>2014-03-17T15:39:08Z</time>
      </trkpt>
      <trkpt lat="43.346004" lon="1.641073">
        <ele>245.9</ele>
        <time>2014-03-17T15:39:17Z</time>
      </trkpt>
      <trkpt lat="43.345984" lon="1.641202">
        <ele>245.5</ele>
        <time>2014-03-17T15:40:34Z</time>
      </trkpt>
      <trkpt lat="43.345941" lon="1.641320">
        <ele>244.8</ele>
        <time>2014-03-17T15:40:45Z</time>
      </trkpt>
      <trkpt lat="43.345964" lon="1.641441">
        <ele>244.1</ele>
        <time>2014-03-17T15:40:56Z</time>
      </trkpt>
      <trkpt lat="43.345912" lon="1.641572">
        <ele>224.6</ele>
        <time>2014-03-17T15:41:33Z</time>
      </trkpt>
      <trkpt lat="43.345926" lon="1.641670">
        <ele>241.7</ele>
        <time>2014-03-17T15:41:58Z</time>
      </trkpt>
      <trkpt lat="43.345995" lon="1.641748">
        <ele>240.7</ele>
        <time>2014-03-17T15:42:13Z</time>
      </trkpt>
      <trkpt lat="43.346069" lon="1.641788">
        <ele>238.5</ele>
        <time>2014-03-17T15:42:25Z</time>
      </trkpt>
      <trkpt lat="43.346162" lon="1.641828">
        <ele>235.3</ele>
        <time>2014-03-17T15:42:44Z</time>
      </trkpt>
      <trkpt lat="43.346278" lon="1.641830">
        <ele>232.9</ele>
        <time>2014-03-17T15:43:14Z</time>
      </trkpt>
      <trkpt lat="43.346387" lon="1.641883">
        <ele>230.2</ele>
        <time>2014-03-17T15:43:37Z</time>
      </trkpt>
      <trkpt lat="43.346415" lon="1.642000">
        <ele>227.8</ele>
        <time>2014-03-17T15:43:50Z</time>
      </trkpt>
      <trkpt lat="43.346380" lon="1.642111">
        <ele>225.9</ele>
        <time>2014-03-17T15:44:27Z</time>
      </trkpt>
      <trkpt lat="43.346279" lon="1.642229">
        <ele>224.8</ele>
        <time>2014-03-17T15:44:41Z</time>
      </trkpt>
      <trkpt lat="43.346192" lon="1.642321">
        <ele>222.4</ele>
        <time>2014-03-17T15:44:54Z</time>
      </trkpt>
      <trkpt lat="43.346082" lon="1.642462">
        <ele>220.2</ele>
        <time>2014-03-17T15:45:07Z</time>
      </trkpt>
      <trkpt lat="43.345998" lon="1.642600">
        <ele>218.1</ele>
        <time>2014-03-17T15:45:22Z</time>
      </trkpt>
      <trkpt lat="43.345910" lon="1.642727">
        <ele>215.6</ele>
        <time>2014-03-17T15:45:35Z</time>
      </trkpt>
      <trkpt lat="43.345819" lon="1.642895">
        <ele>214.2</ele>
        <time>2014-03-17T15:45:48Z</time>
      </trkpt>
      <trkpt lat="43.345744" lon="1.643058">
        <ele>212.9</ele>
        <time>2014-03-17T15:46:00Z</time>
      </trkpt>
      <trkpt lat="43.345673" lon="1.643177">
        <ele>212.9</ele>
        <time>2014-03-17T15:46:13Z</time>
      </trkpt>
      <trkpt lat="43.345558" lon="1.643271">
        <ele>213.0</ele>
        <time>2014-03-17T15:46:25Z</time>
      </trkpt>
      <trkpt lat="43.345446" lon="1.643341">
        <ele>213.0</ele>
        <time>2014-03-17T15:46:37Z</time>
      </trkpt>
      <trkpt lat="43.345375" lon="1.643317">
        <ele>212.8</ele>
        <time>2014-03-17T15:47:38Z</time>
      </trkpt>
      <trkpt lat="43.345269" lon="1.643236">
        <ele>213.6</ele>
        <time>2014-03-17T15:47:52Z</time>
      </trkpt>
      <trkpt lat="43.345181" lon="1.643130">
        <ele>213.6</ele>
        <time>2014-03-17T15:48:04Z</time>
      </trkpt>
      <trkpt lat="43.345092" lon="1.642956">
        <ele>213.9</ele>
        <time>2014-03-17T15:48:16Z</time>
      </trkpt>
      <trkpt lat="43.345017" lon="1.642795">
        <ele>213.4</ele>
        <time>2014-03-17T15:48:27Z</time>
      </trkpt>
      <trkpt lat="43.344962" lon="1.642643">
        <ele>213.2</ele>
        <time>2014-03-17T15:48:38Z</time>
      </trkpt>
      <trkpt lat="43.344852" lon="1.642501">
        <ele>213.0</ele>
        <time>2014-03-17T15:48:52Z</time>
      </trkpt>
      <trkpt lat="43.344744" lon="1.642552">
        <ele>212.7</ele>
        <time>2014-03-17T15:49:12Z</time>
      </trkpt>
      <trkpt lat="43.344634" lon="1.642509">
        <ele>212.8</ele>
        <time>2014-03-17T15:49:31Z</time>
      </trkpt>
      <trkpt lat="43.344569" lon="1.642407">
        <ele>212.7</ele>
        <time>2014-03-17T15:49:51Z</time>
      </trkpt>
      <trkpt lat="43.344522" lon="1.642531">
        <ele>213.0</ele>
        <time>2014-03-17T15:50:06Z</time>
      </trkpt>
      <trkpt lat="43.344499" lon="1.642706">
        <ele>212.9</ele>
        <time>2014-03-17T15:50:16Z</time>
      </trkpt>
      <trkpt lat="43.344499" lon="1.642882">
        <ele>212.7</ele>
        <time>2014-03-17T15:50:27Z</time>
      </trkpt>
      <trkpt lat="43.344517" lon="1.643053">
        <ele>212.8</ele>
        <time>2014-03-17T15:50:39Z</time>
      </trkpt>
      <trkpt lat="43.344518" lon="1.643267">
        <ele>213.2</ele>
        <time>2014-03-17T15:50:51Z</time>
      </trkpt>
      <trkpt lat="43.344491" lon="1.643394">
        <ele>213.4</ele>
        <time>2014-03-17T15:50:57Z</time>
      </trkpt>
      <trkpt lat="43.344514" lon="1.643541">
        <ele>213.4</ele>
        <time>2014-03-17T15:51:10Z</time>
      </trkpt>
      <trkpt lat="43.344527" lon="1.643685">
        <ele>212.9</ele>
        <time>2014-03-17T15:51:23Z</time>
      </trkpt>
      <trkpt lat="43.344469" lon="1.643882">
        <ele>212.3</ele>
        <time>2014-03-17T15:51:40Z</time>
      </trkpt>
      <trkpt lat="43.344367" lon="1.643967">
        <ele>212.7</ele>
        <time>2014-03-17T15:51:54Z</time>
      </trkpt>
      <trkpt lat="43.344320" lon="1.644169">
        <ele>213.6</ele>
        <time>2014-03-17T15:52:07Z</time>
      </trkpt>
      <trkpt lat="43.344335" lon="1.644345">
        <ele>213.6</ele>
        <time>2014-03-17T15:52:18Z</time>
        <name>Route D25</name>
      </trkpt>
      <trkpt lat="43.344358" lon="1.644505">
        <ele>213.5</ele>
        <time>2014-03-17T15:52:30Z</time>
      </trkpt>
      <trkpt lat="43.344399" lon="1.644682">
        <ele>213.2</ele>
        <time>2014-03-17T15:52:42Z</time>
      </trkpt>
      <trkpt lat="43.344450" lon="1.644833">
        <ele>213.5</ele>
        <time>2014-03-17T15:52:52Z</time>
      </trkpt>
      <trkpt lat="43.344487" lon="1.644981">
        <ele>213.6</ele>
        <time>2014-03-17T15:53:01Z</time>
      </trkpt>
      <trkpt lat="43.344541" lon="1.645119">
        <ele>213.8</ele>
        <time>2014-03-17T15:53:11Z</time>
      </trkpt>
      <trkpt lat="43.344584" lon="1.645236">
        <ele>214.1</ele>
        <time>2014-03-17T15:53:22Z</time>
      </trkpt>
      <trkpt lat="43.344696" lon="1.645256">
        <ele>214.5</ele>
        <time>2014-03-17T15:53:33Z</time>
      </trkpt>
      <trkpt lat="43.344798" lon="1.645227">
        <ele>214.6</ele>
        <time>2014-03-17T15:53:42Z</time>
      </trkpt>
      <trkpt lat="43.344901" lon="1.645178">
        <ele>215.0</ele>
        <time>2014-03-17T15:53:52Z</time>
      </trkpt>
      <trkpt lat="43.344980" lon="1.645071">
        <ele>214.4</ele>
        <time>2014-03-17T15:54:03Z</time>
      </trkpt>
      <trkpt lat="43.345071" lon="1.644969">
        <ele>214.1</ele>
        <time>2014-03-17T15:54:13Z</time>
      </trkpt>
      <trkpt lat="43.345163" lon="1.644889">
        <ele>213.8</ele>
        <time>2014-03-17T15:54:23Z</time>
      </trkpt>
      <trkpt lat="43.345242" lon="1.644807">
        <ele>214.2</ele>
        <time>2014-03-17T15:54:32Z</time>
      </trkpt>
      <trkpt lat="43.345347" lon="1.644723">
        <ele>214.3</ele>
        <time>2014-03-17T15:54:41Z</time>
      </trkpt>
      <trkpt lat="43.345426" lon="1.644625">
        <ele>214.4</ele>
        <time>2014-03-17T15:54:50Z</time>
      </trkpt>
      <trkpt lat="43.345505" lon="1.644551">
        <ele>214.5</ele>
        <time>2014-03-17T15:54:58Z</time>
      </trkpt>
      <trkpt lat="43.345582" lon="1.644475">
        <ele>214.7</ele>
        <time>2014-03-17T15:55:07Z</time>
      </trkpt>
      <trkpt lat="43.345665" lon="1.644405">
        <ele>214.5</ele>
        <time>2014-03-17T15:55:15Z</time>
      </trkpt>
      <trkpt lat="43.345735" lon="1.644335">
        <ele>214.4</ele>
        <time>2014-03-17T15:55:23Z</time>
      </trkpt>
      <trkpt lat="43.345818" lon="1.644258">
        <ele>214.0</ele>
        <time>2014-03-17T15:55:31Z</time>
      </trkpt>
      <trkpt lat="43.345903" lon="1.644195">
        <ele>213.8</ele>
        <time>2014-03-17T15:55:39Z</time>
      </trkpt>
      <trkpt lat="43.345981" lon="1.644131">
        <ele>213.6</ele>
        <time>2014-03-17T15:55:48Z</time>
      </trkpt>
      <trkpt lat="43.346073" lon="1.644068">
        <ele>213.3</ele>
        <time>2014-03-17T15:55:59Z</time>
      </trkpt>
      <trkpt lat="43.346157" lon="1.644012">
        <ele>213.6</ele>
        <time>2014-03-17T15:56:08Z</time>
      </trkpt>
      <trkpt lat="43.346240" lon="1.643949">
        <ele>213.6</ele>
        <time>2014-03-17T15:56:16Z</time>
      </trkpt>
      <trkpt lat="43.346327" lon="1.643873">
        <ele>213.7</ele>
        <time>2014-03-17T15:56:25Z</time>
      </trkpt>
      <trkpt lat="43.346405" lon="1.643800">
        <ele>214.0</ele>
        <time>2014-03-17T15:56:33Z</time>
      </trkpt>
      <trkpt lat="43.346502" lon="1.643723">
        <ele>214.1</ele>
        <time>2014-03-17T15:56:43Z</time>
      </trkpt>
      <trkpt lat="43.346596" lon="1.643643">
        <ele>214.1</ele>
        <time>2014-03-17T15:56:53Z</time>
      </trkpt>
      <trkpt lat="43.346685" lon="1.643589">
        <ele>213.9</ele>
        <time>2014-03-17T15:57:01Z</time>
      </trkpt>
      <trkpt lat="43.346775" lon="1.643554">
        <ele>213.7</ele>
        <time>2014-03-17T15:57:09Z</time>
      </trkpt>
      <trkpt lat="43.346869" lon="1.643513">
        <ele>213.6</ele>
        <time>2014-03-17T15:57:18Z</time>
      </trkpt>
      <trkpt lat="43.346972" lon="1.643485">
        <ele>213.8</ele>
        <time>2014-03-17T15:57:28Z</time>
      </trkpt>
      <trkpt lat="43.347078" lon="1.643455">
        <ele>214.0</ele>
        <time>2014-03-17T15:57:38Z</time>
      </trkpt>
      <trkpt lat="43.347214" lon="1.643396">
        <ele>213.7</ele>
        <time>2014-03-17T15:57:50Z</time>
      </trkpt>
      <trkpt lat="43.347329" lon="1.643337">
        <ele>213.9</ele>
        <time>2014-03-17T15:58:01Z</time>
      </trkpt>
      <trkpt lat="43.347439" lon="1.643296">
        <ele>213.9</ele>
        <time>2014-03-17T15:58:11Z</time>
      </trkpt>
      <trkpt lat="43.347546" lon="1.643288">
        <ele>213.8</ele>
        <time>2014-03-17T15:58:19Z</time>
      </trkpt>
      <trkpt lat="43.347643" lon="1.643345">
        <ele>213.5</ele>
        <time>2014-03-17T15:58:27Z</time>
      </trkpt>
      <trkpt lat="43.347676" lon="1.643464">
        <ele>213.4</ele>
        <time>2014-03-17T15:58:35Z</time>
      </trkpt>
      <trkpt lat="43.347678" lon="1.643618">
        <ele>213.4</ele>
        <time>2014-03-17T15:58:45Z</time>
      </trkpt>
      <trkpt lat="43.347652" lon="1.643787">
        <ele>213.6</ele>
        <time>2014-03-17T15:58:55Z</time>
      </trkpt>
      <trkpt lat="43.347623" lon="1.643958">
        <ele>213.9</ele>
        <time>2014-03-17T15:59:07Z</time>
      </trkpt>
      <trkpt lat="43.347681" lon="1.644093">
        <ele>213.5</ele>
        <time>2014-03-17T15:59:19Z</time>
      </trkpt>
      <trkpt lat="43.347784" lon="1.644194">
        <ele>213.1</ele>
        <time>2014-03-17T15:59:29Z</time>
      </trkpt>
      <trkpt lat="43.347912" lon="1.644214">
        <ele>213.1</ele>
        <time>2014-03-17T15:59:42Z</time>
      </trkpt>
      <trkpt lat="43.348015" lon="1.644158">
        <ele>213.5</ele>
        <time>2014-03-17T15:59:52Z</time>
      </trkpt>
      <trkpt lat="43.348094" lon="1.644049">
        <ele>213.7</ele>
        <time>2014-03-17T16:00:01Z</time>
      </trkpt>
      <trkpt lat="43.348153" lon="1.643926">
        <ele>213.6</ele>
        <time>2014-03-17T16:00:10Z</time>
      </trkpt>
      <trkpt lat="43.348200" lon="1.643807">
        <ele>213.7</ele>
        <time>2014-03-17T16:00:19Z</time>
      </trkpt>
      <trkpt lat="43.348233" lon="1.643685">
        <ele>213.9</ele>
        <time>2014-03-17T16:00:27Z</time>
      </trkpt>
      <trkpt lat="43.348282" lon="1.643553">
        <ele>213.5</ele>
        <time>2014-03-17T16:00:37Z</time>
      </trkpt>
      <trkpt lat="43.348340" lon="1.643441">
        <ele>213.4</ele>
        <time>2014-03-17T16:00:45Z</time>
      </trkpt>
      <trkpt lat="43.348417" lon="1.643342">
        <ele>213.5</ele>
        <time>2014-03-17T16:00:53Z</time>
      </trkpt>
      <trkpt lat="43.348500" lon="1.643245">
        <ele>213.4</ele>
        <time>2014-03-17T16:01:02Z</time>
      </trkpt>
      <trkpt lat="43.348568" lon="1.643138">
        <ele>213.5</ele>
        <time>2014-03-17T16:01:11Z</time>
      </trkpt>
      <trkpt lat="43.348641" lon="1.643044">
        <ele>213.3</ele>
        <time>2014-03-17T16:01:20Z</time>
      </trkpt>
      <trkpt lat="43.348722" lon="1.642953">
        <ele>213.5</ele>
        <time>2014-03-17T16:01:33Z</time>
      </trkpt>
      <trkpt lat="43.348837" lon="1.642910">
        <ele>213.3</ele>
        <time>2014-03-17T16:01:43Z</time>
      </trkpt>
      <trkpt lat="43.348947" lon="1.642858">
        <ele>213.4</ele>
        <time>2014-03-17T16:01:52Z</time>
      </trkpt>
      <trkpt lat="43.349038" lon="1.642807">
        <ele>213.5</ele>
        <time>2014-03-17T16:02:00Z</time>
      </trkpt>
      <trkpt lat="43.349133" lon="1.642757">
        <ele>213.5</ele>
        <time>2014-03-17T16:02:08Z</time>
      </trkpt>
      <trkpt lat="43.349226" lon="1.642741">
        <ele>213.3</ele>
        <time>2014-03-17T16:02:16Z</time>
      </trkpt>
      <trkpt lat="43.349322" lon="1.642788">
        <ele>213.2</ele>
        <time>2014-03-17T16:02:25Z</time>
      </trkpt>
      <trkpt lat="43.349419" lon="1.642830">
        <ele>213.4</ele>
        <time>2014-03-17T16:02:36Z</time>
      </trkpt>
      <trkpt lat="43.349489" lon="1.642832">
        <ele>213.2</ele>
        <time>2014-03-17T16:02:55Z</time>
      </trkpt>
      <trkpt lat="43.349574" lon="1.642871">
        <ele>212.5</ele>
        <time>2014-03-17T16:03:26Z</time>
      </trkpt>
      <trkpt lat="43.349659" lon="1.642914">
        <ele>212.9</ele>
        <time>2014-03-17T16:03:35Z</time>
      </trkpt>
      <trkpt lat="43.349744" lon="1.642956">
        <ele>213.1</ele>
        <time>2014-03-17T16:03:45Z</time>
      </trkpt>
      <trkpt lat="43.349839" lon="1.642996">
        <ele>213.3</ele>
        <time>2014-03-17T16:03:55Z</time>
      </trkpt>
      <trkpt lat="43.349926" lon="1.643048">
        <ele>213.3</ele>
        <time>2014-03-17T16:04:04Z</time>
      </trkpt>
      <trkpt lat="43.350024" lon="1.643100">
        <ele>213.4</ele>
        <time>2014-03-17T16:04:14Z</time>
      </trkpt>
      <trkpt lat="43.350135" lon="1.643167">
        <ele>213.4</ele>
        <time>2014-03-17T16:04:23Z</time>
      </trkpt>
      <trkpt lat="43.350215" lon="1.643236">
        <ele>213.3</ele>
        <time>2014-03-17T16:04:32Z</time>
      </trkpt>
      <trkpt lat="43.350293" lon="1.643319">
        <ele>213.3</ele>
        <time>2014-03-17T16:04:40Z</time>
      </trkpt>
      <trkpt lat="43.350332" lon="1.643441">
        <ele>213.2</ele>
        <time>2014-03-17T16:04:49Z</time>
      </trkpt>
      <trkpt lat="43.350329" lon="1.643580">
        <ele>213.4</ele>
        <time>2014-03-17T16:04:58Z</time>
      </trkpt>
      <trkpt lat="43.350316" lon="1.643708">
        <ele>213.4</ele>
        <time>2014-03-17T16:05:06Z</time>
      </trkpt>
      <trkpt lat="43.350293" lon="1.643838">
        <ele>213.4</ele>
        <time>2014-03-17T16:05:14Z</time>
      </trkpt>
      <trkpt lat="43.350279" lon="1.643969">
        <ele>213.5</ele>
        <time>2014-03-17T16:05:24Z</time>
      </trkpt>
      <trkpt lat="43.350268" lon="1.644119">
        <ele>213.6</ele>
        <time>2014-03-17T16:05:34Z</time>
      </trkpt>
      <trkpt lat="43.350236" lon="1.644292">
        <ele>213.8</ele>
        <time>2014-03-17T16:05:46Z</time>
      </trkpt>
      <trkpt lat="43.350200" lon="1.644447">
        <ele>214.0</ele>
        <time>2014-03-17T16:05:57Z</time>
      </trkpt>
      <trkpt lat="43.350171" lon="1.644601">
        <ele>214.6</ele>
        <time>2014-03-17T16:06:10Z</time>
      </trkpt>
      <trkpt lat="43.350206" lon="1.644767">
        <ele>214.0</ele>
        <time>2014-03-17T16:06:21Z</time>
      </trkpt>
      <trkpt lat="43.350319" lon="1.644865">
        <ele>213.8</ele>
        <time>2014-03-17T16:06:34Z</time>
      </trkpt>
      <trkpt lat="43.350438" lon="1.644842">
        <ele>214.0</ele>
        <time>2014-03-17T16:06:45Z</time>
      </trkpt>
      <trkpt lat="43.350498" lon="1.644728">
        <ele>214.1</ele>
        <time>2014-03-17T16:06:54Z</time>
      </trkpt>
      <trkpt lat="43.350547" lon="1.644610">
        <ele>214.0</ele>
        <time>2014-03-17T16:07:04Z</time>
      </trkpt>
      <trkpt lat="43.350610" lon="1.644500">
        <ele>214.0</ele>
        <time>2014-03-17T16:07:14Z</time>
      </trkpt>
      <trkpt lat="43.350673" lon="1.644409">
        <ele>214.0</ele>
        <time>2014-03-17T16:07:21Z</time>
      </trkpt>
      <trkpt lat="43.350729" lon="1.644293">
        <ele>214.0</ele>
        <time>2014-03-17T16:07:30Z</time>
      </trkpt>
      <trkpt lat="43.350788" lon="1.644186">
        <ele>214.0</ele>
        <time>2014-03-17T16:07:40Z</time>
      </trkpt>
      <trkpt lat="43.350861" lon="1.644086">
        <ele>214.2</ele>
        <time>2014-03-17T16:07:49Z</time>
      </trkpt>
      <trkpt lat="43.350943" lon="1.643982">
        <ele>214.4</ele>
        <time>2014-03-17T16:07:59Z</time>
      </trkpt>
      <trkpt lat="43.351037" lon="1.643864">
        <ele>214.1</ele>
        <time>2014-03-17T16:08:11Z</time>
      </trkpt>
      <trkpt lat="43.351133" lon="1.643773">
        <ele>214.0</ele>
        <time>2014-03-17T16:08:21Z</time>
      </trkpt>
      <trkpt lat="43.351238" lon="1.643661">
        <ele>214.0</ele>
        <time>2014-03-17T16:08:33Z</time>
      </trkpt>
      <trkpt lat="43.351321" lon="1.643572">
        <ele>214.4</ele>
        <time>2014-03-17T16:08:43Z</time>
      </trkpt>
      <trkpt lat="43.351406" lon="1.643521">
        <ele>214.7</ele>
        <time>2014-03-17T16:08:53Z</time>
      </trkpt>
      <trkpt lat="43.351496" lon="1.643450">
        <ele>214.6</ele>
        <time>2014-03-17T16:09:03Z</time>
      </trkpt>
      <trkpt lat="43.351603" lon="1.643418">
        <ele>214.4</ele>
        <time>2014-03-17T16:09:13Z</time>
      </trkpt>
      <trkpt lat="43.351695" lon="1.643471">
        <ele>214.2</ele>
        <time>2014-03-17T16:09:24Z</time>
      </trkpt>
      <trkpt lat="43.351790" lon="1.643496">
        <ele>214.4</ele>
        <time>2014-03-17T16:09:33Z</time>
      </trkpt>
      <trkpt lat="43.351894" lon="1.643454">
        <ele>214.4</ele>
        <time>2014-03-17T16:09:43Z</time>
      </trkpt>
      <trkpt lat="43.351980" lon="1.643426">
        <ele>214.5</ele>
        <time>2014-03-17T16:09:51Z</time>
      </trkpt>
      <trkpt lat="43.352090" lon="1.643397">
        <ele>214.4</ele>
        <time>2014-03-17T16:10:02Z</time>
      </trkpt>
      <trkpt lat="43.352195" lon="1.643370">
        <ele>214.4</ele>
        <time>2014-03-17T16:10:11Z</time>
      </trkpt>
      <trkpt lat="43.352295" lon="1.643393">
        <ele>214.4</ele>
        <time>2014-03-17T16:10:21Z</time>
      </trkpt>
      <trkpt lat="43.352406" lon="1.643432">
        <ele>214.3</ele>
        <time>2014-03-17T16:10:32Z</time>
      </trkpt>
      <trkpt lat="43.352515" lon="1.643489">
        <ele>214.6</ele>
        <time>2014-03-17T16:10:43Z</time>
      </trkpt>
      <trkpt lat="43.352612" lon="1.643517">
        <ele>214.5</ele>
        <time>2014-03-17T16:10:54Z</time>
      </trkpt>
      <trkpt lat="43.352709" lon="1.643557">
        <ele>214.5</ele>
        <time>2014-03-17T16:11:05Z</time>
      </trkpt>
      <trkpt lat="43.352823" lon="1.643641">
        <ele>214.5</ele>
        <time>2014-03-17T16:11:17Z</time>
      </trkpt>
      <trkpt lat="43.352921" lon="1.643752">
        <ele>214.1</ele>
        <time>2014-03-17T16:11:29Z</time>
      </trkpt>
      <trkpt lat="43.353002" lon="1.643836">
        <ele>214.0</ele>
        <time>2014-03-17T16:11:37Z</time>
      </trkpt>
      <trkpt lat="43.353072" lon="1.643925">
        <ele>214.1</ele>
        <time>2014-03-17T16:11:45Z</time>
      </trkpt>
      <trkpt lat="43.353138" lon="1.644032">
        <ele>214.1</ele>
        <time>2014-03-17T16:11:53Z</time>
      </trkpt>
      <trkpt lat="43.353200" lon="1.644115">
        <ele>214.0</ele>
        <time>2014-03-17T16:12:01Z</time>
      </trkpt>
      <trkpt lat="43.353254" lon="1.644216">
        <ele>214.0</ele>
        <time>2014-03-17T16:12:10Z</time>
      </trkpt>
      <trkpt lat="43.353333" lon="1.644329">
        <ele>214.0</ele>
        <time>2014-03-17T16:12:19Z</time>
      </trkpt>
      <trkpt lat="43.353392" lon="1.644422">
        <ele>214.1</ele>
        <time>2014-03-17T16:12:27Z</time>
      </trkpt>
      <trkpt lat="43.353429" lon="1.644538">
        <ele>213.9</ele>
        <time>2014-03-17T16:12:35Z</time>
      </trkpt>
      <trkpt lat="43.353470" lon="1.644668">
        <ele>213.9</ele>
        <time>2014-03-17T16:12:44Z</time>
      </trkpt>
      <trkpt lat="43.353516" lon="1.644794">
        <ele>214.0</ele>
        <time>2014-03-17T16:12:53Z</time>
      </trkpt>
      <trkpt lat="43.353555" lon="1.644945">
        <ele>213.9</ele>
        <time>2014-03-17T16:13:04Z</time>
      </trkpt>
      <trkpt lat="43.353581" lon="1.645024">
        <ele>214.4</ele>
        <time>2014-03-17T16:14:17Z</time>
      </trkpt>
      <trkpt lat="43.353640" lon="1.645051">
        <ele>214.3</ele>
        <time>2014-03-17T16:14:31Z</time>
      </trkpt>
      <trkpt lat="43.353736" lon="1.645117">
        <ele>214.1</ele>
        <time>2014-03-17T16:14:41Z</time>
      </trkpt>
      <trkpt lat="43.353849" lon="1.645088">
        <ele>214.3</ele>
        <time>2014-03-17T16:14:50Z</time>
      </trkpt>
      <trkpt lat="43.353943" lon="1.645069">
        <ele>214.3</ele>
        <time>2014-03-17T16:14:58Z</time>
      </trkpt>
      <trkpt lat="43.354034" lon="1.645040">
        <ele>214.5</ele>
        <time>2014-03-17T16:15:06Z</time>
      </trkpt>
      <trkpt lat="43.354119" lon="1.645001">
        <ele>215.0</ele>
        <time>2014-03-17T16:15:15Z</time>
      </trkpt>
      <trkpt lat="43.354214" lon="1.644963">
        <ele>215.4</ele>
        <time>2014-03-17T16:15:24Z</time>
      </trkpt>
      <trkpt lat="43.354320" lon="1.644945">
        <ele>215.6</ele>
        <time>2014-03-17T16:15:34Z</time>
      </trkpt>
      <trkpt lat="43.354426" lon="1.644940">
        <ele>215.7</ele>
        <time>2014-03-17T16:15:44Z</time>
      </trkpt>
      <trkpt lat="43.354539" lon="1.644971">
        <ele>215.8</ele>
        <time>2014-03-17T16:15:53Z</time>
      </trkpt>
      <trkpt lat="43.354622" lon="1.645033">
        <ele>216.0</ele>
        <time>2014-03-17T16:16:01Z</time>
      </trkpt>
      <trkpt lat="43.354709" lon="1.645104">
        <ele>216.3</ele>
        <time>2014-03-17T16:16:10Z</time>
      </trkpt>
      <trkpt lat="43.354814" lon="1.645171">
        <ele>216.4</ele>
        <time>2014-03-17T16:16:18Z</time>
      </trkpt>
      <trkpt lat="43.354897" lon="1.645238">
        <ele>216.4</ele>
        <time>2014-03-17T16:16:26Z</time>
      </trkpt>
      <trkpt lat="43.354964" lon="1.645329">
        <ele>216.6</ele>
        <time>2014-03-17T16:16:36Z</time>
      </trkpt>
      <trkpt lat="43.355044" lon="1.645406">
        <ele>216.6</ele>
        <time>2014-03-17T16:16:44Z</time>
      </trkpt>
      <trkpt lat="43.355110" lon="1.645504">
        <ele>216.5</ele>
        <time>2014-03-17T16:16:52Z</time>
      </trkpt>
      <trkpt lat="43.355162" lon="1.645602">
        <ele>216.7</ele>
        <time>2014-03-17T16:17:00Z</time>
      </trkpt>
      <trkpt lat="43.355199" lon="1.645718">
        <ele>216.6</ele>
        <time>2014-03-17T16:17:08Z</time>
      </trkpt>
      <trkpt lat="43.355232" lon="1.645830">
        <ele>217.3</ele>
        <time>2014-03-17T16:17:18Z</time>
      </trkpt>
      <trkpt lat="43.355282" lon="1.645942">
        <ele>217.8</ele>
        <time>2014-03-17T16:17:28Z</time>
      </trkpt>
      <trkpt lat="43.355336" lon="1.646048">
        <ele>217.8</ele>
        <time>2014-03-17T16:17:37Z</time>
      </trkpt>
      <trkpt lat="43.355411" lon="1.646149">
        <ele>217.6</ele>
        <time>2014-03-17T16:17:48Z</time>
      </trkpt>
      <trkpt lat="43.355446" lon="1.646269">
        <ele>217.3</ele>
        <time>2014-03-17T16:17:57Z</time>
      </trkpt>
      <trkpt lat="43.355489" lon="1.646384">
        <ele>217.1</ele>
        <time>2014-03-17T16:18:07Z</time>
      </trkpt>
      <trkpt lat="43.355520" lon="1.646508">
        <ele>217.2</ele>
        <time>2014-03-17T16:18:16Z</time>
      </trkpt>
      <trkpt lat="43.355556" lon="1.646632">
        <ele>216.9</ele>
        <time>2014-03-17T16:18:26Z</time>
      </trkpt>
      <trkpt lat="43.355567" lon="1.646764">
        <ele>216.1</ele>
        <time>2014-03-17T16:18:36Z</time>
      </trkpt>
      <trkpt lat="43.355553" lon="1.646894">
        <ele>215.8</ele>
        <time>2014-03-17T16:18:45Z</time>
      </trkpt>
      <trkpt lat="43.355545" lon="1.647043">
        <ele>215.5</ele>
        <time>2014-03-17T16:18:55Z</time>
      </trkpt>
      <trkpt lat="43.355473" lon="1.647162">
        <ele>216.1</ele>
        <time>2014-03-17T16:19:08Z</time>
      </trkpt>
      <trkpt lat="43.355436" lon="1.647297">
        <ele>216.2</ele>
        <time>2014-03-17T16:19:19Z</time>
      </trkpt>
      <trkpt lat="43.355438" lon="1.647457">
        <ele>216.3</ele>
        <time>2014-03-17T16:19:31Z</time>
      </trkpt>
      <trkpt lat="43.355472" lon="1.647648">
        <ele>216.3</ele>
        <time>2014-03-17T16:19:43Z</time>
      </trkpt>
      <trkpt lat="43.355502" lon="1.647775">
        <ele>215.7</ele>
        <time>2014-03-17T16:19:53Z</time>
      </trkpt>
      <trkpt lat="43.355570" lon="1.647894">
        <ele>215.4</ele>
        <time>2014-03-17T16:20:04Z</time>
      </trkpt>
      <trkpt lat="43.355664" lon="1.647973">
        <ele>215.3</ele>
        <time>2014-03-17T16:20:13Z</time>
      </trkpt>
      <trkpt lat="43.355681" lon="1.648079">
        <ele>215.7</ele>
        <time>2014-03-17T16:20:22Z</time>
      </trkpt>
      <trkpt lat="43.355756" lon="1.648088">
        <ele>216.0</ele>
        <time>2014-03-17T16:20:31Z</time>
      </trkpt>
      <trkpt lat="43.355856" lon="1.647980">
        <ele>216.2</ele>
        <time>2014-03-17T16:20:39Z</time>
      </trkpt>
      <trkpt lat="43.355920" lon="1.647882">
        <ele>216.2</ele>
        <time>2014-03-17T16:20:47Z</time>
      </trkpt>
      <trkpt lat="43.355978" lon="1.647789">
        <ele>216.4</ele>
        <time>2014-03-17T16:20:57Z</time>
      </trkpt>
      <trkpt lat="43.356063" lon="1.647701">
        <ele>216.9</ele>
        <time>2014-03-17T16:21:07Z</time>
      </trkpt>
      <trkpt lat="43.356139" lon="1.647610">
        <ele>217.1</ele>
        <time>2014-03-17T16:21:17Z</time>
      </trkpt>
      <trkpt lat="43.356219" lon="1.647520">
        <ele>217.1</ele>
        <time>2014-03-17T16:21:27Z</time>
      </trkpt>
      <trkpt lat="43.356319" lon="1.647430">
        <ele>217.1</ele>
        <time>2014-03-17T16:21:36Z</time>
      </trkpt>
      <trkpt lat="43.356400" lon="1.647351">
        <ele>216.8</ele>
        <time>2014-03-17T16:21:46Z</time>
      </trkpt>
      <trkpt lat="43.356497" lon="1.647352">
        <ele>216.6</ele>
        <time>2014-03-17T16:21:57Z</time>
      </trkpt>
      <trkpt lat="43.356580" lon="1.647280">
        <ele>216.6</ele>
        <time>2014-03-17T16:22:07Z</time>
      </trkpt>
      <trkpt lat="43.356647" lon="1.647159">
        <ele>216.3</ele>
        <time>2014-03-17T16:22:16Z</time>
      </trkpt>
      <trkpt lat="43.356720" lon="1.647044">
        <ele>215.5</ele>
        <time>2014-03-17T16:22:25Z</time>
      </trkpt>
      <trkpt lat="43.356792" lon="1.646935">
        <ele>214.5</ele>
        <time>2014-03-17T16:22:33Z</time>
      </trkpt>
      <trkpt lat="43.356842" lon="1.646826">
        <ele>213.9</ele>
        <time>2014-03-17T16:22:41Z</time>
      </trkpt>
      <trkpt lat="43.356889" lon="1.646718">
        <ele>213.0</ele>
        <time>2014-03-17T16:22:50Z</time>
      </trkpt>
      <trkpt lat="43.356956" lon="1.646606">
        <ele>212.0</ele>
        <time>2014-03-17T16:22:59Z</time>
      </trkpt>
      <trkpt lat="43.357020" lon="1.646510">
        <ele>211.1</ele>
        <time>2014-03-17T16:23:07Z</time>
      </trkpt>
      <trkpt lat="43.357086" lon="1.646422">
        <ele>210.2</ele>
        <time>2014-03-17T16:23:16Z</time>
      </trkpt>
      <trkpt lat="43.357153" lon="1.646334">
        <ele>209.7</ele>
        <time>2014-03-17T16:23:23Z</time>
      </trkpt>
      <trkpt lat="43.357222" lon="1.646235">
        <ele>209.2</ele>
        <time>2014-03-17T16:23:32Z</time>
      </trkpt>
      <trkpt lat="43.357286" lon="1.646134">
        <ele>208.4</ele>
        <time>2014-03-17T16:23:40Z</time>
      </trkpt>
      <trkpt lat="43.357363" lon="1.646046">
        <ele>207.9</ele>
        <time>2014-03-17T16:23:48Z</time>
      </trkpt>
      <trkpt lat="43.357433" lon="1.645976">
        <ele>207.6</ele>
        <time>2014-03-17T16:23:55Z</time>
      </trkpt>
    </trkseg>
  </trk>
</gpx>

